Wetterdaten: Mittwoch, 25.03.2026
Datum Zeit Temp. Aussen Temp. o. S. Temp +5cm Feuchte Auss Luftdruck Regen Sonnenschein Solar Windböen Empfang
25.03.2026 00:00 13,1 °C 12,2 °C 8,3 °C 67 % 1006,1 hPa 0,0 l/m² 0 min 0 W/m² 25,7 km/h (4 Bft) 95,74 %
25.03.2026 00:02 13,1 °C 12,2 °C 8,3 °C 67 % 1006,1 hPa 0,0 l/m² 0 min 0 W/m² 22,5 km/h (4 Bft) 95,12 %
25.03.2026 00:04 13,1 °C 12,2 °C 8,3 °C 67 % 1006,1 hPa 0,0 l/m² 0 min 0 W/m² 45,1 km/h (6 Bft) 97,96 %
25.03.2026 00:08 13,1 °C 12,2 °C 8,3 °C 67 % 1005,9 hPa 0,0 l/m² 0 min 0 W/m² 38,6 km/h (5 Bft) 95,70 %
25.03.2026 00:12 13,1 °C 12,2 °C 8,3 °C 67 % 1005,9 hPa 0,0 l/m² 0 min 0 W/m² 32,2 km/h (5 Bft) 100,00 %
25.03.2026 00:14 13,1 °C 12,2 °C 8,3 °C 66 % 1005,9 hPa 0,0 l/m² 0 min 0 W/m² 35,4 km/h (5 Bft) 97,87 %
25.03.2026 00:16 13,1 °C 12,2 °C 8,3 °C 67 % 1005,8 hPa 0,0 l/m² 0 min 0 W/m² 25,7 km/h (4 Bft) 97,87 %
25.03.2026 00:18 13,1 °C 12,2 °C 8,3 °C 66 % 1005,8 hPa 0,0 l/m² 0 min 0 W/m² 35,4 km/h (5 Bft) 93,62 %
25.03.2026 00:20 13,1 °C 12,2 °C 8,3 °C 66 % 1005,6 hPa 0,0 l/m² 0 min 0 W/m² 25,7 km/h (4 Bft) 95,74 %
25.03.2026 00:22 13,1 °C 12,2 °C 8,3 °C 66 % 1005,7 hPa 0,0 l/m² 0 min 0 W/m² 51,5 km/h (7 Bft) 97,87 %
25.03.2026 00:24 13,2 °C 12,2 °C 8,3 °C 66 % 1005,7 hPa 0,0 l/m² 0 min 0 W/m² 45,1 km/h (6 Bft) 97,83 %
25.03.2026 00:26 13,2 °C 12,2 °C 8,3 °C 66 % 1005,5 hPa 0,0 l/m² 0 min 0 W/m² 32,2 km/h (5 Bft) 95,74 %
25.03.2026 00:28 13,2 °C 12,2 °C 8,3 °C 66 % 1005,4 hPa 0,0 l/m² 0 min 0 W/m² 35,4 km/h (5 Bft) 97,87 %
25.03.2026 00:30 13,1 °C 12,2 °C 8,3 °C 66 % 1005,5 hPa 0,0 l/m² 0 min 0 W/m² 32,2 km/h (5 Bft) 95,74 %
25.03.2026 00:32 13,1 °C 12,2 °C 8,3 °C 66 % 1005,4 hPa 0,0 l/m² 0 min 0 W/m² 32,2 km/h (5 Bft) 97,87 %
25.03.2026 00:34 13,1 °C 12,2 °C 8,3 °C 66 % 1005,2 hPa 0,0 l/m² 0 min 0 W/m² 41,8 km/h (6 Bft) 95,74 %
25.03.2026 00:36 13,1 °C 12,2 °C 8,3 °C 66 % 1005,4 hPa 0,0 l/m² 0 min 0 W/m² 45,1 km/h (6 Bft) 95,74 %
25.03.2026 00:38 13,1 °C 12,2 °C 8,3 °C 66 % 1005,3 hPa 0,0 l/m² 0 min 0 W/m² 29,0 km/h (5 Bft) 95,65 %
25.03.2026 00:40 13,1 °C 12,2 °C 8,3 °C 66 % 1005,1 hPa 0,0 l/m² 0 min 0 W/m² 29,0 km/h (5 Bft) 95,74 %
25.03.2026 00:42 13,1 °C 12,2 °C 8,3 °C 66 % 1005,1 hPa 0,0 l/m² 0 min 0 W/m² 38,6 km/h (5 Bft) 95,74 %
25.03.2026 00:44 13,1 °C 12,2 °C 8,3 °C 66 % 1005,2 hPa 0,0 l/m² 0 min 0 W/m² 32,2 km/h (5 Bft) 97,87 %
25.03.2026 00:46 13,1 °C 12,2 °C 8,3 °C 66 % 1005,0 hPa 0,0 l/m² 0 min 0 W/m² 32,2 km/h (5 Bft) 97,87 %
25.03.2026 00:48 13,1 °C 12,2 °C 8,3 °C 66 % 1005,1 hPa 0,0 l/m² 0 min 0 W/m² 45,1 km/h (6 Bft) 95,65 %
25.03.2026 00:50 13,1 °C 12,2 °C 8,3 °C 66 % 1005,0 hPa 0,0 l/m² 0 min 0 W/m² 35,4 km/h (5 Bft) 95,74 %
25.03.2026 00:52 13,1 °C 12,2 °C 8,3 °C 66 % 1004,9 hPa 0,0 l/m² 0 min 0 W/m² 38,6 km/h (5 Bft) 93,62 %
25.03.2026 00:54 13,1 °C 12,2 °C 8,3 °C 66 % 1004,9 hPa 0,0 l/m² 0 min 0 W/m² 32,2 km/h (5 Bft) 97,87 %
25.03.2026 00:56 13,1 °C 12,2 °C 8,3 °C 66 % 1005,0 hPa 0,0 l/m² 0 min 0 W/m² 38,6 km/h (5 Bft) 95,74 %
25.03.2026 00:58 13,1 °C 12,2 °C 8,3 °C 66 % 1004,9 hPa 0,0 l/m² 0 min 0 W/m² 32,2 km/h (5 Bft) 97,87 %
25.03.2026 01:00 13,1 °C 12,2 °C 8,3 °C 66 % 1004,9 hPa 0,0 l/m² 0 min 0 W/m² 25,7 km/h (4 Bft) 97,83 %
25.03.2026 01:02 13,1 °C 12,2 °C 8,3 °C 66 % 1004,9 hPa 0,0 l/m² 0 min 0 W/m² 22,5 km/h (4 Bft) 97,87 %
25.03.2026 01:04 13,1 °C 12,2 °C 8,3 °C 66 % 1005,2 hPa 0,0 l/m² 0 min 0 W/m² 38,6 km/h (5 Bft) 97,87 %
25.03.2026 01:06 13,1 °C 12,2 °C 8,3 °C 66 % 1004,9 hPa 0,0 l/m² 0 min 0 W/m² 35,4 km/h (5 Bft) 95,74 %
25.03.2026 01:08 13,1 °C 12,2 °C 8,3 °C 66 % 1004,9 hPa 0,0 l/m² 0 min 0 W/m² 45,1 km/h (6 Bft) 97,92 %
25.03.2026 01:10 13,1 °C 12,2 °C 8,3 °C 66 % 1004,9 hPa 0,0 l/m² 0 min 0 W/m² 45,1 km/h (6 Bft) 95,92 %
25.03.2026 01:12 13,1 °C 12,2 °C 8,3 °C 66 % 1004,8 hPa 0,0 l/m² 0 min 0 W/m² 22,5 km/h (4 Bft) 95,74 %
25.03.2026 01:14 13,1 °C 12,2 °C 8,3 °C 66 % 1004,8 hPa 0,0 l/m² 0 min 0 W/m² 29,0 km/h (5 Bft) 97,87 %
25.03.2026 01:16 13,1 °C 12,2 °C 8,3 °C 66 % 1004,6 hPa 0,0 l/m² 0 min 0 W/m² 25,7 km/h (4 Bft) 95,74 %
25.03.2026 01:18 13,1 °C 12,2 °C 8,3 °C 66 % 1004,6 hPa 0,0 l/m² 0 min 0 W/m² 22,5 km/h (4 Bft) 97,83 %
25.03.2026 01:20 13,1 °C 12,2 °C 8,3 °C 66 % 1004,4 hPa 0,0 l/m² 0 min 0 W/m² 29,0 km/h (5 Bft) 97,87 %
25.03.2026 01:22 13,1 °C 12,2 °C 8,3 °C 66 % 1004,4 hPa 0,0 l/m² 0 min 0 W/m² 29,0 km/h (5 Bft) 97,87 %
25.03.2026 01:24 13,0 °C 12,2 °C 8,3 °C 66 % 1004,5 hPa 0,0 l/m² 0 min 0 W/m² 32,2 km/h (5 Bft) 100,00 %
25.03.2026 01:26 13,1 °C 12,2 °C 8,3 °C 66 % 1004,4 hPa 0,0 l/m² 0 min 0 W/m² 35,4 km/h (5 Bft) 100,00 %
25.03.2026 01:28 13,1 °C 12,2 °C 8,3 °C 66 % 1004,3 hPa 0,0 l/m² 0 min 0 W/m² 29,0 km/h (5 Bft) 100,00 %
25.03.2026 01:30 13,0 °C 12,2 °C 8,3 °C 66 % 1004,2 hPa 0,0 l/m² 0 min 0 W/m² 32,2 km/h (5 Bft) 100,00 %
25.03.2026 01:32 13,0 °C 12,2 °C 8,3 °C 66 % 1004,1 hPa 0,0 l/m² 0 min 0 W/m² 41,8 km/h (6 Bft) 100,00 %
25.03.2026 01:34 13,0 °C 12,2 °C 8,3 °C 66 % 1004,1 hPa 0,0 l/m² 0 min 0 W/m² 35,4 km/h (5 Bft) 97,87 %
25.03.2026 01:36 13,0 °C 12,2 °C 8,3 °C 66 % 1004,2 hPa 0,0 l/m² 0 min 0 W/m² 32,2 km/h (5 Bft) 97,87 %
25.03.2026 01:38 13,0 °C 12,2 °C 8,3 °C 66 % 1004,2 hPa 0,0 l/m² 0 min 0 W/m² 32,2 km/h (5 Bft) 97,87 %
25.03.2026 01:40 13,0 °C 12,2 °C 8,3 °C 66 % 1004,0 hPa 0,0 l/m² 0 min 0 W/m² 22,5 km/h (4 Bft) 97,83 %
25.03.2026 01:42 13,0 °C 12,2 °C 8,3 °C 66 % 1004,0 hPa 0,0 l/m² 0 min 0 W/m² 38,6 km/h (5 Bft) 95,74 %
25.03.2026 01:44 12,9 °C 12,2 °C 8,3 °C 66 % 1004,0 hPa 0,0 l/m² 0 min 0 W/m² 32,2 km/h (5 Bft) 97,87 %
25.03.2026 01:46 12,9 °C 12,2 °C 8,3 °C 66 % 1003,9 hPa 0,0 l/m² 0 min 0 W/m² 29,0 km/h (5 Bft) 97,87 %
25.03.2026 01:48 12,9 °C 12,2 °C 8,3 °C 66 % 1003,7 hPa 0,0 l/m² 0 min 0 W/m² 35,4 km/h (5 Bft) 97,87 %
25.03.2026 01:50 12,9 °C 12,2 °C 8,3 °C 66 % 1003,6 hPa 0,0 l/m² 0 min 0 W/m² 29,0 km/h (5 Bft) 97,87 %
25.03.2026 01:52 12,9 °C 12,2 °C 8,3 °C 66 % 1003,5 hPa 0,0 l/m² 0 min 0 W/m² 45,1 km/h (6 Bft) 97,83 %
25.03.2026 01:54 12,9 °C 12,2 °C 8,3 °C 66 % 1003,5 hPa 0,0 l/m² 0 min 0 W/m² 19,3 km/h (3 Bft) 97,87 %
25.03.2026 01:56 12,9 °C 12,2 °C 8,3 °C 66 % 1003,6 hPa 0,0 l/m² 0 min 0 W/m² 32,2 km/h (5 Bft) 95,74 %
25.03.2026 01:58 12,9 °C 12,2 °C 8,3 °C 66 % 1003,7 hPa 0,0 l/m² 0 min 0 W/m² 32,2 km/h (5 Bft) 97,87 %
25.03.2026 02:00 12,9 °C 12,2 °C 8,3 °C 66 % 1003,4 hPa 0,0 l/m² 0 min 0 W/m² 32,2 km/h (5 Bft) 97,87 %
25.03.2026 02:02 12,9 °C 12,2 °C 8,3 °C 66 % 1003,2 hPa 0,0 l/m² 0 min 0 W/m² 35,4 km/h (5 Bft) 97,87 %
25.03.2026 02:04 12,9 °C 12,2 °C 8,3 °C 66 % 1003,2 hPa 0,0 l/m² 0 min 0 W/m² 29,0 km/h (5 Bft) 100,00 %
25.03.2026 02:06 12,9 °C 12,2 °C 8,3 °C 66 % 1003,3 hPa 0,0 l/m² 0 min 0 W/m² 29,0 km/h (5 Bft) 97,87 %
25.03.2026 02:08 12,9 °C 12,2 °C 8,3 °C 66 % 1003,2 hPa 0,0 l/m² 0 min 0 W/m² 35,4 km/h (5 Bft) 100,00 %
25.03.2026 02:10 12,9 °C 12,2 °C 8,3 °C 66 % 1003,2 hPa 0,0 l/m² 0 min 0 W/m² 51,5 km/h (7 Bft) 100,00 %
25.03.2026 02:12 12,9 °C 12,2 °C 8,3 °C 66 % 1003,0 hPa 0,0 l/m² 0 min 0 W/m² 38,6 km/h (5 Bft) 100,00 %
25.03.2026 02:14 12,9 °C 12,2 °C 8,3 °C 66 % 1003,0 hPa 0,0 l/m² 0 min 0 W/m² 25,7 km/h (4 Bft) 100,00 %
25.03.2026 02:16 12,9 °C 12,2 °C 8,3 °C 66 % 1003,1 hPa 0,0 l/m² 0 min 0 W/m² 29,0 km/h (5 Bft) 97,83 %
25.03.2026 02:18 12,9 °C 12,2 °C 8,3 °C 66 % 1003,1 hPa 0,0 l/m² 0 min 0 W/m² 35,4 km/h (5 Bft) 100,00 %
25.03.2026 02:20 12,9 °C 12,2 °C 8,3 °C 66 % 1002,7 hPa 0,0 l/m² 0 min 0 W/m² 35,4 km/h (5 Bft) 100,00 %
25.03.2026 02:22 12,9 °C 12,2 °C 8,3 °C 66 % 1002,9 hPa 0,0 l/m² 0 min 0 W/m² 32,2 km/h (5 Bft) 100,00 %
25.03.2026 02:24 12,9 °C 12,2 °C 8,3 °C 66 % 1002,7 hPa 0,0 l/m² 0 min 0 W/m² 45,1 km/h (6 Bft) 97,87 %
25.03.2026 02:26 12,9 °C 12,2 °C 8,3 °C 66 % 1002,7 hPa 0,0 l/m² 0 min 0 W/m² 32,2 km/h (5 Bft) 100,00 %
25.03.2026 02:28 12,9 °C 12,2 °C 8,3 °C 66 % 1002,6 hPa 0,0 l/m² 0 min 0 W/m² 41,8 km/h (6 Bft) 97,87 %
25.03.2026 02:30 12,9 °C 12,2 °C 8,3 °C 66 % 1002,6 hPa 0,0 l/m² 0 min 0 W/m² 38,6 km/h (5 Bft) 100,00 %
25.03.2026 02:32 12,9 °C 12,2 °C 8,3 °C 66 % 1002,5 hPa 0,0 l/m² 0 min 0 W/m² 29,0 km/h (5 Bft) 100,00 %
25.03.2026 02:34 12,9 °C 12,2 °C 8,3 °C 66 % 1002,5 hPa 0,0 l/m² 0 min 0 W/m² 32,2 km/h (5 Bft) 100,00 %
25.03.2026 02:36 12,9 °C 12,2 °C 8,3 °C 66 % 1002,4 hPa 0,0 l/m² 0 min 0 W/m² 29,0 km/h (5 Bft) 100,00 %
25.03.2026 02:38 12,9 °C 12,2 °C 8,3 °C 66 % 1002,4 hPa 0,0 l/m² 0 min 0 W/m² 41,8 km/h (6 Bft) 100,00 %
25.03.2026 02:40 12,9 °C 12,2 °C 8,3 °C 66 % 1002,4 hPa 0,0 l/m² 0 min 0 W/m² 22,5 km/h (4 Bft) 100,00 %
25.03.2026 02:42 12,9 °C 12,2 °C 8,3 °C 66 % 1002,3 hPa 0,0 l/m² 0 min 0 W/m² 32,2 km/h (5 Bft) 100,00 %
25.03.2026 02:44 12,9 °C 12,2 °C 8,3 °C 66 % 1002,3 hPa 0,0 l/m² 0 min 0 W/m² 22,5 km/h (4 Bft) 100,00 %
25.03.2026 02:46 12,9 °C 12,2 °C 8,3 °C 66 % 1002,1 hPa 0,0 l/m² 0 min 0 W/m² 38,6 km/h (5 Bft) 100,00 %
25.03.2026 02:48 12,9 °C 12,2 °C 8,3 °C 66 % 1002,1 hPa 0,0 l/m² 0 min 0 W/m² 25,7 km/h (4 Bft) 97,87 %
25.03.2026 02:50 12,9 °C 12,2 °C 8,3 °C 66 % 1002,1 hPa 0,0 l/m² 0 min 0 W/m² 35,4 km/h (5 Bft) 100,00 %
25.03.2026 02:52 12,8 °C 12,2 °C 8,3 °C 66 % 1002,0 hPa 0,0 l/m² 0 min 0 W/m² 29,0 km/h (5 Bft) 100,00 %
25.03.2026 02:54 12,8 °C 11,7 °C 7,8 °C 67 % 1001,9 hPa 0,0 l/m² 0 min 0 W/m² 35,4 km/h (5 Bft) 100,00 %
25.03.2026 02:56 12,8 °C 11,7 °C 7,8 °C 68 % 1001,9 hPa 0,0 l/m² 0 min 0 W/m² 48,3 km/h (6 Bft) 97,87 %
25.03.2026 02:58 12,8 °C 11,7 °C 7,8 °C 68 % 1002,3 hPa 0,0 l/m² 0 min 0 W/m² 61,2 km/h (7 Bft) 97,87 %
25.03.2026 03:00 12,7 °C 11,7 °C 7,8 °C 68 % 1001,8 hPa 0,0 l/m² 0 min 0 W/m² 22,5 km/h (4 Bft) 97,87 %
25.03.2026 03:02 12,7 °C 11,7 °C 7,8 °C 68 % 1001,7 hPa 0,0 l/m² 0 min 0 W/m² 29,0 km/h (5 Bft) 97,83 %
25.03.2026 03:04 12,6 °C 11,7 °C 7,8 °C 68 % 1001,8 hPa 0,0 l/m² 0 min 0 W/m² 48,3 km/h (6 Bft) 97,92 %
25.03.2026 03:06 12,6 °C 11,7 °C 7,8 °C 68 % 1001,7 hPa 0,0 l/m² 0 min 0 W/m² 38,6 km/h (5 Bft) 95,74 %
25.03.2026 03:08 12,6 °C 11,7 °C 7,8 °C 68 % 1001,7 hPa 0,0 l/m² 0 min 0 W/m² 29,0 km/h (5 Bft) 95,74 %
25.03.2026 03:10 12,5 °C 11,7 °C 7,8 °C 69 % 1001,6 hPa 0,0 l/m² 0 min 0 W/m² 35,4 km/h (5 Bft) 95,74 %
25.03.2026 03:12 12,5 °C 11,7 °C 7,8 °C 69 % 1001,6 hPa 0,0 l/m² 0 min 0 W/m² 57,9 km/h (7 Bft) 95,74 %
25.03.2026 03:14 12,5 °C 11,7 °C 7,8 °C 69 % 1001,5 hPa 0,0 l/m² 0 min 0 W/m² 32,2 km/h (5 Bft) 97,87 %
25.03.2026 03:16 12,4 °C 11,7 °C 7,8 °C 69 % 1001,6 hPa 0,0 l/m² 0 min 0 W/m² 25,7 km/h (4 Bft) 91,49 %
25.03.2026 03:18 12,4 °C 11,7 °C 7,8 °C 69 % 1001,4 hPa 0,0 l/m² 0 min 0 W/m² 25,7 km/h (4 Bft) 95,74 %
25.03.2026 03:20 12,4 °C 11,7 °C 7,8 °C 69 % 1001,4 hPa 0,0 l/m² 0 min 0 W/m² 29,0 km/h (5 Bft) 97,83 %
25.03.2026 03:22 12,4 °C 11,7 °C 7,8 °C 69 % 1001,4 hPa 0,0 l/m² 0 min 0 W/m² 29,0 km/h (5 Bft) 95,74 %
25.03.2026 03:24 12,4 °C 11,7 °C 7,8 °C 69 % 1001,3 hPa 0,0 l/m² 0 min 0 W/m² 29,0 km/h (5 Bft) 93,62 %
25.03.2026 03:26 12,4 °C 11,7 °C 7,8 °C 69 % 1001,3 hPa 0,0 l/m² 0 min 0 W/m² 41,8 km/h (6 Bft) 91,49 %
25.03.2026 03:28 12,4 °C 11,7 °C 7,8 °C 69 % 1001,2 hPa 0,0 l/m² 0 min 0 W/m² 48,3 km/h (6 Bft) 91,49 %
25.03.2026 03:30 12,4 °C 11,7 °C 7,8 °C 69 % 1001,1 hPa 0,0 l/m² 0 min 0 W/m² 38,6 km/h (5 Bft) 89,36 %
25.03.2026 03:32 12,3 °C 11,7 °C 7,8 °C 69 % 1001,2 hPa 0,0 l/m² 0 min 0 W/m² 41,8 km/h (6 Bft) 91,30 %
25.03.2026 03:34 12,3 °C 11,7 °C 7,8 °C 69 % 1001,0 hPa 0,0 l/m² 0 min 0 W/m² 64,4 km/h (8 Bft) 93,62 %
25.03.2026 03:36 12,3 °C 11,7 °C 7,8 °C 69 % 1000,9 hPa 0,0 l/m² 0 min 0 W/m² 35,4 km/h (5 Bft) 93,62 %
25.03.2026 03:38 12,3 °C 11,7 °C 7,8 °C 69 % 1000,9 hPa 0,0 l/m² 0 min 0 W/m² 35,4 km/h (5 Bft) 91,49 %
25.03.2026 03:40 12,3 °C 11,7 °C 7,8 °C 69 % 1000,9 hPa 0,0 l/m² 0 min 0 W/m² 35,4 km/h (5 Bft) 91,49 %
25.03.2026 03:42 12,3 °C 11,7 °C 7,8 °C 69 % 1000,9 hPa 0,0 l/m² 0 min 0 W/m² 22,5 km/h (4 Bft) 89,36 %
25.03.2026 03:44 12,3 °C 11,7 °C 7,8 °C 69 % 1000,8 hPa 0,0 l/m² 0 min 0 W/m² 41,8 km/h (6 Bft) 95,65 %
25.03.2026 03:46 12,3 °C 11,7 °C 7,8 °C 69 % 1000,7 hPa 0,0 l/m² 0 min 0 W/m² 29,0 km/h (5 Bft) 95,74 %
25.03.2026 03:48 12,2 °C 11,7 °C 7,8 °C 69 % 1001,0 hPa 0,0 l/m² 0 min 0 W/m² 29,0 km/h (5 Bft) 97,87 %
25.03.2026 03:53 12,2 °C 11,7 °C 7,8 °C 69 % 1000,7 hPa 0,0 l/m² 0 min 0 W/m² 45,1 km/h (6 Bft) 95,65 %
25.03.2026 03:54 12,2 °C 11,7 °C 7,8 °C 69 % 1000,7 hPa 0,0 l/m² 0 min 0 W/m² 38,6 km/h (5 Bft) 95,65 %
25.03.2026 03:56 12,2 °C 11,7 °C 7,8 °C 69 % 1000,6 hPa 0,0 l/m² 0 min 0 W/m² 19,3 km/h (3 Bft) 100,00 %
25.03.2026 03:58 12,2 °C 11,7 °C 7,8 °C 69 % 1000,6 hPa 0,0 l/m² 0 min 0 W/m² 32,2 km/h (5 Bft) 100,00 %
25.03.2026 04:00 12,2 °C 11,7 °C 7,8 °C 69 % 1000,6 hPa 0,0 l/m² 0 min 0 W/m² 45,1 km/h (6 Bft) 100,00 %
25.03.2026 04:02 12,2 °C 11,7 °C 7,8 °C 70 % 1000,5 hPa 0,0 l/m² 0 min 0 W/m² 29,0 km/h (5 Bft) 100,00 %
25.03.2026 04:04 12,2 °C 11,1 °C 7,8 °C 70 % 1000,5 hPa 0,0 l/m² 0 min 0 W/m² 22,5 km/h (4 Bft) 97,96 %
25.03.2026 04:06 12,2 °C 11,1 °C 7,8 °C 70 % 1000,4 hPa 0,0 l/m² 0 min 0 W/m² 41,8 km/h (6 Bft) 97,87 %
25.03.2026 04:08 12,1 °C 11,1 °C 7,8 °C 70 % 1000,5 hPa 0,0 l/m² 0 min 0 W/m² 29,0 km/h (5 Bft) 97,87 %
25.03.2026 04:10 12,1 °C 11,1 °C 7,2 °C 70 % 1000,5 hPa 0,0 l/m² 0 min 0 W/m² 35,4 km/h (5 Bft) 100,00 %
25.03.2026 04:12 12,1 °C 11,1 °C 7,2 °C 72 % 1000,5 hPa 0,0 l/m² 0 min 0 W/m² 32,2 km/h (5 Bft) 93,62 %
25.03.2026 04:14 12,0 °C 11,1 °C 7,2 °C 72 % 1000,4 hPa 0,0 l/m² 0 min 0 W/m² 19,3 km/h (3 Bft) 100,00 %
25.03.2026 04:16 11,9 °C 10,6 °C 6,7 °C 73 % 1000,4 hPa 0,0 l/m² 0 min 0 W/m² 48,3 km/h (6 Bft) 100,00 %
25.03.2026 04:18 11,8 °C 10,6 °C 6,7 °C 74 % 1000,3 hPa 0,0 l/m² 0 min 0 W/m² 45,1 km/h (6 Bft) 97,87 %
25.03.2026 04:20 11,7 °C 10,6 °C 6,7 °C 75 % 1000,4 hPa 0,0 l/m² 0 min 0 W/m² 29,0 km/h (5 Bft) 100,00 %
25.03.2026 04:22 11,6 °C 10,6 °C 6,7 °C 76 % 1000,6 hPa 0,0 l/m² 0 min 0 W/m² 32,2 km/h (5 Bft) 97,87 %
25.03.2026 04:24 11,5 °C 10,0 °C 6,1 °C 77 % 1000,5 hPa 0,0 l/m² 0 min 0 W/m² 32,2 km/h (5 Bft) 95,74 %
25.03.2026 04:26 11,4 °C 10,0 °C 6,1 °C 78 % 1000,5 hPa 0,0 l/m² 0 min 0 W/m² 54,7 km/h (7 Bft) 97,83 %
25.03.2026 04:28 11,3 °C 10,0 °C 6,1 °C 78 % 1000,6 hPa 0,0 l/m² 0 min 0 W/m² 35,4 km/h (5 Bft) 100,00 %
25.03.2026 04:30 11,2 °C 10,0 °C 6,1 °C 79 % 1000,4 hPa 0,0 l/m² 0 min 0 W/m² 41,8 km/h (6 Bft) 100,00 %
25.03.2026 04:32 11,1 °C 10,0 °C 6,1 °C 79 % 1000,5 hPa 0,0 l/m² 0 min 0 W/m² 29,0 km/h (5 Bft) 100,00 %
25.03.2026 04:34 11,1 °C 10,0 °C 6,1 °C 79 % 1000,4 hPa 0,0 l/m² 0 min 0 W/m² 19,3 km/h (3 Bft) 97,87 %
25.03.2026 04:36 11,1 °C 10,0 °C 6,1 °C 79 % 1000,4 hPa 0,0 l/m² 0 min 0 W/m² 35,4 km/h (5 Bft) 97,87 %
25.03.2026 04:38 11,0 °C 10,0 °C 6,7 °C 79 % 1000,4 hPa 0,0 l/m² 0 min 0 W/m² 32,2 km/h (5 Bft) 97,83 %
25.03.2026 04:40 10,9 °C 10,0 °C 6,7 °C 79 % 1000,5 hPa 0,0 l/m² 0 min 0 W/m² 48,3 km/h (6 Bft) 100,00 %
25.03.2026 04:42 10,9 °C 10,0 °C 6,7 °C 79 % 1000,5 hPa 0,0 l/m² 0 min 0 W/m² 25,7 km/h (4 Bft) 100,00 %
25.03.2026 04:44 10,9 °C 10,0 °C 6,7 °C 79 % 1000,4 hPa 0,0 l/m² 0 min 0 W/m² 35,4 km/h (5 Bft) 100,00 %
25.03.2026 04:46 10,9 °C 10,0 °C 6,7 °C 80 % 1000,6 hPa 0,0 l/m² 0 min 0 W/m² 41,8 km/h (6 Bft) 100,00 %
25.03.2026 04:48 10,8 °C 10,0 °C 6,7 °C 80 % 1000,5 hPa 0,0 l/m² 0 min 0 W/m² 32,2 km/h (5 Bft) 100,00 %
25.03.2026 04:50 10,8 °C 10,0 °C 6,1 °C 80 % 1000,5 hPa 0,0 l/m² 0 min 0 W/m² 25,7 km/h (4 Bft) 100,00 %
25.03.2026 04:52 10,8 °C 10,0 °C 6,1 °C 80 % 1000,6 hPa 0,0 l/m² 0 min 0 W/m² 45,1 km/h (6 Bft) 100,00 %
25.03.2026 04:54 10,7 °C 10,0 °C 6,1 °C 80 % 1000,5 hPa 0,0 l/m² 0 min 0 W/m² 29,0 km/h (5 Bft) 100,00 %
25.03.2026 04:56 10,7 °C 10,0 °C 6,1 °C 80 % 1000,5 hPa 0,0 l/m² 0 min 0 W/m² 25,7 km/h (4 Bft) 100,00 %
25.03.2026 04:58 10,7 °C 10,0 °C 6,1 °C 80 % 1000,5 hPa 0,0 l/m² 0 min 0 W/m² 32,2 km/h (5 Bft) 95,74 %
25.03.2026 05:00 10,6 °C 10,0 °C 6,1 °C 80 % 1000,6 hPa 0,0 l/m² 0 min 0 W/m² 54,7 km/h (7 Bft) 100,00 %
25.03.2026 05:02 10,6 °C 10,0 °C 6,1 °C 80 % 1000,6 hPa 0,0 l/m² 0 min 0 W/m² 48,3 km/h (6 Bft) 97,87 %
25.03.2026 05:04 10,6 °C 10,0 °C 6,1 °C 80 % 1000,4 hPa 0,0 l/m² 0 min 0 W/m² 38,6 km/h (5 Bft) 97,96 %
25.03.2026 05:06 10,6 °C 10,0 °C 6,1 °C 80 % 1000,2 hPa 0,0 l/m² 0 min 0 W/m² 32,2 km/h (5 Bft) 100,00 %
25.03.2026 05:08 10,6 °C 10,0 °C 6,1 °C 80 % 1000,2 hPa 0,0 l/m² 0 min 0 W/m² 29,0 km/h (5 Bft) 100,00 %
25.03.2026 05:10 10,6 °C 10,0 °C 6,1 °C 79 % 1000,4 hPa 0,0 l/m² 0 min 0 W/m² 25,7 km/h (4 Bft) 100,00 %
25.03.2026 05:12 10,5 °C 10,0 °C 6,1 °C 79 % 1000,2 hPa 0,0 l/m² 0 min 0 W/m² 22,5 km/h (4 Bft) 100,00 %
25.03.2026 05:14 10,5 °C 9,4 °C 6,1 °C 79 % 1000,2 hPa 0,0 l/m² 0 min 0 W/m² 25,7 km/h (4 Bft) 100,00 %
25.03.2026 05:16 10,5 °C 9,4 °C 6,1 °C 79 % 1000,3 hPa 0,0 l/m² 0 min 0 W/m² 35,4 km/h (5 Bft) 100,00 %
25.03.2026 05:18 10,4 °C 10,0 °C 6,1 °C 78 % 1000,4 hPa 0,0 l/m² 0 min 0 W/m² 29,0 km/h (5 Bft) 100,00 %
25.03.2026 05:20 10,4 °C 10,0 °C 6,1 °C 78 % 1000,2 hPa 0,0 l/m² 0 min 0 W/m² 35,4 km/h (5 Bft) 100,00 %
25.03.2026 05:22 10,4 °C 9,4 °C 6,1 °C 78 % 1000,3 hPa 0,0 l/m² 0 min 0 W/m² 25,7 km/h (4 Bft) 97,87 %
25.03.2026 05:24 10,4 °C 9,4 °C 6,1 °C 77 % 1000,3 hPa 0,0 l/m² 0 min 0 W/m² 38,6 km/h (5 Bft) 97,87 %
25.03.2026 05:26 10,4 °C 9,4 °C 6,1 °C 77 % 1000,2 hPa 0,0 l/m² 0 min 0 W/m² 25,7 km/h (4 Bft) 97,87 %
25.03.2026 05:28 10,4 °C 9,4 °C 6,1 °C 77 % 1000,3 hPa 0,0 l/m² 0 min 0 W/m² 45,1 km/h (6 Bft) 97,87 %
25.03.2026 05:30 10,4 °C 9,4 °C 6,1 °C 77 % 1000,3 hPa 0,0 l/m² 0 min 0 W/m² 22,5 km/h (4 Bft) 95,74 %
25.03.2026 05:32 10,4 °C 9,4 °C 6,1 °C 77 % 1000,1 hPa 0,0 l/m² 0 min 0 W/m² 29,0 km/h (5 Bft) 97,83 %
25.03.2026 05:34 10,4 °C 9,4 °C 6,1 °C 76 % 1000,2 hPa 0,0 l/m² 0 min 0 W/m² 19,3 km/h (3 Bft) 95,74 %
25.03.2026 05:36 10,4 °C 9,4 °C 6,1 °C 77 % 1000,2 hPa 0,0 l/m² 0 min 0 W/m² 25,7 km/h (4 Bft) 97,87 %
25.03.2026 05:38 10,3 °C 9,4 °C 6,1 °C 77 % 1000,1 hPa 0,0 l/m² 0 min 0 W/m² 25,7 km/h (4 Bft) 97,87 %
25.03.2026 05:40 10,3 °C 9,4 °C 6,1 °C 77 % 1000,2 hPa 0,0 l/m² 0 min 0 W/m² 16,1 km/h (3 Bft) 97,87 %
25.03.2026 05:42 10,3 °C 9,4 °C 6,1 °C 77 % 1000,1 hPa 0,0 l/m² 0 min 0 W/m² 19,3 km/h (3 Bft) 97,87 %
25.03.2026 05:44 10,3 °C 9,4 °C 6,1 °C 77 % 1000,1 hPa 0,0 l/m² 0 min 0 W/m² 22,5 km/h (4 Bft) 97,83 %
25.03.2026 05:46 10,3 °C 9,4 °C 6,1 °C 76 % 1000,2 hPa 0,0 l/m² 0 min 0 W/m² 25,7 km/h (4 Bft) 95,74 %
25.03.2026 05:48 10,3 °C 9,4 °C 6,1 °C 75 % 1000,2 hPa 0,0 l/m² 0 min 0 W/m² 29,0 km/h (5 Bft) 95,74 %
25.03.2026 05:50 10,3 °C 9,4 °C 6,1 °C 75 % 1000,2 hPa 0,0 l/m² 0 min 0 W/m² 19,3 km/h (3 Bft) 97,87 %
25.03.2026 05:52 10,3 °C 9,4 °C 6,1 °C 76 % 1000,2 hPa 0,0 l/m² 0 min 0 W/m² 19,3 km/h (3 Bft) 95,74 %
25.03.2026 05:54 10,3 °C 9,4 °C 5,0 °C 77 % 1000,3 hPa 0,0 l/m² 0 min 0 W/m² 19,3 km/h (3 Bft) 97,87 %
25.03.2026 05:56 10,3 °C 9,4 °C 5,0 °C 78 % 1000,3 hPa 0,0 l/m² 0 min 0 W/m² 32,2 km/h (5 Bft) 97,83 %
25.03.2026 05:58 10,3 °C 9,4 °C 4,4 °C 79 % 1000,1 hPa 0,0 l/m² 0 min 0 W/m² 32,2 km/h (5 Bft) 97,87 %
25.03.2026 06:00 10,3 °C 9,4 °C 4,4 °C 79 % 1000,2 hPa 0,0 l/m² 0 min 0 W/m² 16,1 km/h (3 Bft) 97,87 %
25.03.2026 06:02 10,2 °C 9,4 °C 4,4 °C 79 % 1000,4 hPa 0,0 l/m² 0 min 0 W/m² 29,0 km/h (5 Bft) 93,62 %
25.03.2026 06:04 10,2 °C 9,4 °C 4,4 °C 79 % 1000,2 hPa 0,0 l/m² 0 min 0 W/m² 41,8 km/h (6 Bft) 97,87 %
25.03.2026 06:07 10,2 °C 9,4 °C 4,4 °C 79 % 1000,3 hPa 0,0 l/m² 0 min 0 W/m² 19,3 km/h (3 Bft) 97,87 %
25.03.2026 06:08 10,2 °C 9,4 °C 4,4 °C 79 % 1000,3 hPa 0,0 l/m² 0 min 0 W/m² 22,5 km/h (4 Bft) 93,75 %
25.03.2026 06:12 10,1 °C 9,4 °C 5,6 °C 79 % 1000,3 hPa 0,0 l/m² 0 min 0 W/m² 19,3 km/h (3 Bft) 95,74 %
25.03.2026 06:14 10,1 °C 9,4 °C 5,6 °C 79 % 1000,2 hPa 0,0 l/m² 0 min 0 W/m² 35,4 km/h (5 Bft) 95,74 %
25.03.2026 06:16 10,1 °C 9,4 °C 5,6 °C 78 % 1000,2 hPa 0,0 l/m² 0 min 0 W/m² 19,3 km/h (3 Bft) 95,74 %
25.03.2026 06:18 10,1 °C 9,4 °C 5,6 °C 78 % 1000,1 hPa 0,0 l/m² 0 min 0 W/m² 19,3 km/h (3 Bft) 94,44 %
25.03.2026 06:20 10,0 °C 9,4 °C 5,6 °C 77 % 1000,0 hPa 0,0 l/m² 0 min 0 W/m² 29,0 km/h (5 Bft) 93,62 %
25.03.2026 06:22 9,9 °C 9,4 °C 5,6 °C 76 % 1000,0 hPa 0,0 l/m² 0 min 0 W/m² 16,1 km/h (3 Bft) 95,74 %
25.03.2026 06:24 9,9 °C 9,4 °C 5,6 °C 75 % 999,9 hPa 0,0 l/m² 0 min 0 W/m² 22,5 km/h (4 Bft) 93,62 %
25.03.2026 06:26 9,9 °C 9,4 °C 5,6 °C 75 % 1000,0 hPa 0,0 l/m² 0 min 0 W/m² 22,5 km/h (4 Bft) 95,74 %
25.03.2026 06:28 9,9 °C 9,4 °C 5,6 °C 74 % 1000,1 hPa 0,0 l/m² 0 min 0 W/m² 35,4 km/h (5 Bft) 94,29 %
25.03.2026 06:30 9,9 °C 8,9 °C 5,6 °C 73 % 1000,4 hPa 0,0 l/m² 0 min 0 W/m² 22,5 km/h (4 Bft) 95,83 %
25.03.2026 06:32 9,9 °C 9,4 °C 5,6 °C 72 % 1000,2 hPa 0,0 l/m² 0 min 0 W/m² 41,8 km/h (6 Bft) 95,65 %
25.03.2026 06:34 9,9 °C 8,9 °C 5,6 °C 72 % 1000,3 hPa 0,0 l/m² 0 min 4 W/m² 38,6 km/h (5 Bft) 95,74 %
25.03.2026 06:36 9,9 °C 8,9 °C 5,6 °C 72 % 1000,2 hPa 0,0 l/m² 0 min 5 W/m² 29,0 km/h (5 Bft) 95,74 %
25.03.2026 06:38 9,8 °C 8,9 °C 5,6 °C 72 % 1000,3 hPa 0,0 l/m² 0 min 7 W/m² 22,5 km/h (4 Bft) 95,74 %
25.03.2026 06:40 9,8 °C 8,9 °C 5,6 °C 72 % 1000,3 hPa 0,0 l/m² 0 min 9 W/m² 38,6 km/h (5 Bft) 93,62 %
25.03.2026 06:42 9,8 °C 8,9 °C 5,6 °C 72 % 1000,3 hPa 0,0 l/m² 0 min 9 W/m² 25,7 km/h (4 Bft) 95,74 %
25.03.2026 06:44 9,8 °C 8,9 °C 5,6 °C 72 % 1000,3 hPa 0,0 l/m² 0 min 10 W/m² 16,1 km/h (3 Bft) 97,96 %
25.03.2026 06:46 9,7 °C 8,9 °C 5,6 °C 72 % 1000,4 hPa 0,0 l/m² 0 min 12 W/m² 25,7 km/h (4 Bft) 97,87 %
25.03.2026 06:48 9,7 °C 8,9 °C 5,0 °C 72 % 1000,3 hPa 0,0 l/m² 0 min 16 W/m² 22,5 km/h (4 Bft) 97,87 %
25.03.2026 06:50 9,7 °C 8,9 °C 5,0 °C 72 % 1000,4 hPa 0,0 l/m² 0 min 21 W/m² 22,5 km/h (4 Bft) 97,87 %
25.03.2026 06:52 9,6 °C 8,9 °C 5,0 °C 72 % 1000,4 hPa 0,0 l/m² 0 min 25 W/m² 16,1 km/h (3 Bft) 100,00 %
25.03.2026 06:54 9,6 °C 8,9 °C 5,0 °C 72 % 1000,4 hPa 0,0 l/m² 0 min 28 W/m² 22,5 km/h (4 Bft) 100,00 %
25.03.2026 06:56 9,6 °C 8,9 °C 5,6 °C 71 % 1000,4 hPa 0,0 l/m² 0 min 33 W/m² 22,5 km/h (4 Bft) 100,00 %
25.03.2026 06:58 9,6 °C 8,9 °C 5,6 °C 71 % 1000,4 hPa 0,0 l/m² 0 min 35 W/m² 22,5 km/h (4 Bft) 96,00 %
25.03.2026 07:00 9,6 °C 8,9 °C 5,6 °C 71 % 1000,5 hPa 0,0 l/m² 0 min 32 W/m² 22,5 km/h (4 Bft) 97,87 %
25.03.2026 07:02 9,6 °C 8,9 °C 5,6 °C 71 % 1000,4 hPa 0,0 l/m² 0 min 29 W/m² 29,0 km/h (5 Bft) 100,00 %
25.03.2026 07:04 9,6 °C 8,9 °C 5,6 °C 70 % 1000,4 hPa 0,0 l/m² 0 min 30 W/m² 29,0 km/h (5 Bft) 100,00 %
25.03.2026 07:06 9,6 °C 8,9 °C 5,6 °C 71 % 1000,5 hPa 0,0 l/m² 0 min 29 W/m² 25,7 km/h (4 Bft) 98,36 %
25.03.2026 07:08 9,6 °C 8,9 °C 5,0 °C 71 % 1000,5 hPa 0,0 l/m² 0 min 27 W/m² 25,7 km/h (4 Bft) 100,00 %
25.03.2026 07:10 9,6 °C 8,9 °C 5,0 °C 71 % 1000,5 hPa 0,0 l/m² 0 min 24 W/m² 25,7 km/h (4 Bft) 100,00 %
25.03.2026 07:12 9,6 °C 8,9 °C 5,0 °C 71 % 1000,6 hPa 0,0 l/m² 0 min 18 W/m² 22,5 km/h (4 Bft) 97,92 %
25.03.2026 07:14 9,5 °C 8,9 °C 5,0 °C 71 % 1000,5 hPa 0,0 l/m² 0 min 15 W/m² 22,5 km/h (4 Bft) 97,87 %
25.03.2026 07:16 9,4 °C 8,3 °C 5,0 °C 72 % 1000,6 hPa 0,0 l/m² 0 min 15 W/m² 16,1 km/h (3 Bft) 97,87 %
25.03.2026 07:18 9,3 °C 8,3 °C 5,0 °C 73 % 1000,7 hPa 0,0 l/m² 0 min 17 W/m² 16,1 km/h (3 Bft) 97,87 %
25.03.2026 07:20 9,2 °C 8,3 °C 5,0 °C 74 % 1000,7 hPa 0,0 l/m² 0 min 18 W/m² 16,1 km/h (3 Bft) 95,65 %
25.03.2026 07:22 9,1 °C 8,3 °C 5,0 °C 74 % 1000,8 hPa 0,0 l/m² 0 min 21 W/m² 29,0 km/h (5 Bft) 97,87 %
25.03.2026 07:24 9,1 °C 8,3 °C 5,0 °C 74 % 1000,7 hPa 0,0 l/m² 0 min 37 W/m² 25,7 km/h (4 Bft) 97,87 %
25.03.2026 07:26 9,1 °C 8,3 °C 5,0 °C 74 % 1000,7 hPa 0,0 l/m² 0 min 51 W/m² 22,5 km/h (4 Bft) 95,74 %
25.03.2026 07:28 9,0 °C 8,3 °C 5,0 °C 74 % 1000,7 hPa 0,0 l/m² 0 min 63 W/m² 19,3 km/h (3 Bft) 97,87 %
25.03.2026 07:30 9,0 °C 8,3 °C 5,0 °C 74 % 1000,8 hPa 0,0 l/m² 0 min 76 W/m² 19,3 km/h (3 Bft) 97,67 %
25.03.2026 07:32 9,0 °C 8,9 °C 5,0 °C 75 % 1000,7 hPa 0,0 l/m² 2 min 96 W/m² 19,3 km/h (3 Bft) 95,92 %
25.03.2026 07:34 9,0 °C 8,9 °C 5,0 °C 75 % 1000,7 hPa 0,0 l/m² 2 min 121 W/m² 22,5 km/h (4 Bft) 95,74 %
25.03.2026 07:36 9,1 °C 8,9 °C 5,0 °C 75 % 1000,8 hPa 0,0 l/m² 2 min 117 W/m² 32,2 km/h (5 Bft) 97,87 %
25.03.2026 07:38 9,1 °C 8,9 °C 5,0 °C 75 % 1000,8 hPa 0,0 l/m² 0 min 86 W/m² 29,0 km/h (5 Bft) 97,92 %
25.03.2026 07:40 9,1 °C 8,9 °C 5,0 °C 75 % 1000,8 hPa 0,0 l/m² 0 min 77 W/m² 22,5 km/h (4 Bft) 95,74 %
25.03.2026 07:42 9,1 °C 8,9 °C 5,0 °C 75 % 1000,9 hPa 0,0 l/m² 0 min 65 W/m² 25,7 km/h (4 Bft) 97,87 %
25.03.2026 07:44 9,1 °C 8,9 °C 5,0 °C 76 % 1000,9 hPa 0,0 l/m² 0 min 59 W/m² 19,3 km/h (3 Bft) 100,00 %
25.03.2026 07:46 9,1 °C 8,3 °C 5,0 °C 76 % 1000,8 hPa 0,0 l/m² 0 min 55 W/m² 19,3 km/h (3 Bft) 100,00 %
25.03.2026 07:48 9,1 °C 8,3 °C 5,0 °C 76 % 1000,7 hPa 0,0 l/m² 0 min 54 W/m² 19,3 km/h (3 Bft) 100,00 %
25.03.2026 07:50 9,1 °C 8,3 °C 5,0 °C 76 % 1000,7 hPa 0,0 l/m² 0 min 52 W/m² 22,5 km/h (4 Bft) 100,00 %
25.03.2026 07:52 9,0 °C 8,3 °C 5,0 °C 75 % 1000,7 hPa 0,0 l/m² 0 min 51 W/m² 19,3 km/h (3 Bft) 100,00 %
25.03.2026 07:54 9,0 °C 8,3 °C 5,0 °C 75 % 1000,8 hPa 0,0 l/m² 0 min 54 W/m² 12,9 km/h (3 Bft) 100,00 %
25.03.2026 07:56 9,0 °C 8,3 °C 5,0 °C 75 % 1000,7 hPa 0,0 l/m² 0 min 54 W/m² 19,3 km/h (3 Bft) 100,00 %
25.03.2026 07:58 8,9 °C 8,3 °C 5,0 °C 75 % 1000,7 hPa 0,0 l/m² 0 min 54 W/m² 22,5 km/h (4 Bft) 100,00 %
25.03.2026 08:00 8,9 °C 8,3 °C 5,0 °C 74 % 1000,8 hPa 0,0 l/m² 0 min 55 W/m² 22,5 km/h (4 Bft) 100,00 %
25.03.2026 08:02 9,0 °C 8,9 °C 5,0 °C 73 % 1000,9 hPa 0,0 l/m² 0 min 61 W/m² 19,3 km/h (3 Bft) 100,00 %
25.03.2026 08:04 9,0 °C 8,9 °C 5,0 °C 73 % 1000,7 hPa 0,0 l/m² 0 min 61 W/m² 16,1 km/h (3 Bft) 100,00 %
25.03.2026 08:06 9,0 °C 8,9 °C 5,0 °C 73 % 1000,6 hPa 0,0 l/m² 0 min 52 W/m² 19,3 km/h (3 Bft) 98,11 %
25.03.2026 08:08 9,1 °C 8,9 °C 5,0 °C 73 % 1000,8 hPa 0,0 l/m² 0 min 58 W/m² 19,3 km/h (3 Bft) 100,00 %
25.03.2026 08:10 9,1 °C 8,9 °C 5,0 °C 73 % 1000,7 hPa 0,0 l/m² 0 min 71 W/m² 25,7 km/h (4 Bft) 100,00 %
25.03.2026 08:12 9,1 °C 8,9 °C 5,0 °C 72 % 1000,8 hPa 0,0 l/m² 0 min 105 W/m² 32,2 km/h (5 Bft) 100,00 %
25.03.2026 08:14 9,1 °C 8,9 °C 5,0 °C 72 % 1000,7 hPa 0,0 l/m² 0 min 117 W/m² 22,5 km/h (4 Bft) 100,00 %
25.03.2026 08:16 9,2 °C 8,9 °C 5,0 °C 72 % 1000,8 hPa 0,0 l/m² 0 min 95 W/m² 22,5 km/h (4 Bft) 97,83 %
25.03.2026 08:18 9,2 °C 8,9 °C 5,6 °C 72 % 1000,8 hPa 0,0 l/m² 0 min 84 W/m² 29,0 km/h (5 Bft) 100,00 %
25.03.2026 08:20 9,3 °C 8,9 °C 5,0 °C 72 % 1000,8 hPa 0,0 l/m² 0 min 94 W/m² 41,8 km/h (6 Bft) 100,00 %
25.03.2026 08:22 9,3 °C 8,9 °C 5,0 °C 71 % 1000,8 hPa 0,0 l/m² 0 min 90 W/m² 25,7 km/h (4 Bft) 100,00 %
25.03.2026 08:24 9,3 °C 8,9 °C 5,0 °C 71 % 1000,8 hPa 0,0 l/m² 0 min 87 W/m² 38,6 km/h (5 Bft) 97,87 %
25.03.2026 08:26 9,2 °C 8,9 °C 5,0 °C 71 % 1000,8 hPa 0,0 l/m² 0 min 75 W/m² 51,5 km/h (7 Bft) 100,00 %
25.03.2026 08:28 9,2 °C 8,9 °C 5,0 °C 71 % 1000,9 hPa 0,0 l/m² 0 min 86 W/m² 29,0 km/h (5 Bft) 98,18 %
25.03.2026 08:30 9,2 °C 8,9 °C 5,0 °C 71 % 1000,7 hPa 0,0 l/m² 0 min 97 W/m² 29,0 km/h (5 Bft) 100,00 %
25.03.2026 08:32 9,2 °C 8,9 °C 5,0 °C 71 % 1000,7 hPa 0,0 l/m² 0 min 88 W/m² 29,0 km/h (5 Bft) 100,00 %
25.03.2026 08:34 9,2 °C 8,9 °C 5,0 °C 71 % 1000,9 hPa 0,0 l/m² 0 min 79 W/m² 38,6 km/h (5 Bft) 100,00 %
25.03.2026 08:36 9,2 °C 8,9 °C 5,0 °C 71 % 1000,7 hPa 0,0 l/m² 0 min 90 W/m² 38,6 km/h (5 Bft) 97,87 %
25.03.2026 08:38 9,1 °C 8,9 °C 5,0 °C 72 % 1000,7 hPa 0,0 l/m² 0 min 101 W/m² 22,5 km/h (4 Bft) 97,87 %
25.03.2026 08:40 9,2 °C 8,9 °C 5,0 °C 72 % 1000,7 hPa 0,0 l/m² 0 min 96 W/m² 19,3 km/h (3 Bft) 100,00 %
25.03.2026 08:42 9,2 °C 8,9 °C 5,0 °C 72 % 1000,8 hPa 0,0 l/m² 0 min 74 W/m² 16,1 km/h (3 Bft) 100,00 %
25.03.2026 08:44 9,2 °C 8,9 °C 5,0 °C 73 % 1000,8 hPa 0,0 l/m² 0 min 65 W/m² 19,3 km/h (3 Bft) 97,87 %
25.03.2026 08:46 9,1 °C 8,9 °C 5,0 °C 73 % 1000,7 hPa 0,0 l/m² 0 min 66 W/m² 12,9 km/h (3 Bft) 95,74 %
25.03.2026 08:48 9,1 °C 8,9 °C 5,0 °C 75 % 1000,8 hPa 0,0 l/m² 0 min 85 W/m² 19,3 km/h (3 Bft) 95,74 %
25.03.2026 08:50 9,1 °C 8,9 °C 5,0 °C 75 % 1000,7 hPa 0,0 l/m² 0 min 116 W/m² 19,3 km/h (3 Bft) 97,87 %
25.03.2026 08:52 9,1 °C 8,9 °C 5,0 °C 76 % 1000,8 hPa 0,0 l/m² 0 min 140 W/m² 19,3 km/h (3 Bft) 97,87 %
25.03.2026 08:54 9,1 °C 8,9 °C 5,0 °C 76 % 1000,7 hPa 0,0 l/m² 0 min 108 W/m² 19,3 km/h (3 Bft) 93,48 %
25.03.2026 08:56 9,1 °C 9,4 °C 5,6 °C 77 % 1000,7 hPa 0,0 l/m² 0 min 127 W/m² 12,9 km/h (3 Bft) 95,74 %
25.03.2026 08:58 9,1 °C 10,0 °C 5,6 °C 77 % 1000,6 hPa 0,0 l/m² 0 min 171 W/m² 12,9 km/h (3 Bft) 93,62 %
25.03.2026 09:00 9,1 °C 11,1 °C 5,6 °C 77 % 1000,8 hPa 0,0 l/m² 0 min 171 W/m² 25,7 km/h (4 Bft) 95,74 %
25.03.2026 09:02 9,2 °C 11,7 °C 6,1 °C 77 % 1000,7 hPa 0,0 l/m² 2 min 236 W/m² 29,0 km/h (5 Bft) 95,74 %
25.03.2026 09:04 9,3 °C 11,7 °C 6,1 °C 77 % 1000,6 hPa 0,0 l/m² 2 min 199 W/m² 25,7 km/h (4 Bft) 95,74 %
25.03.2026 09:06 9,3 °C 10,6 °C 6,1 °C 77 % 1000,8 hPa 0,0 l/m² 0 min 161 W/m² 32,2 km/h (5 Bft) 94,83 %
25.03.2026 09:08 9,3 °C 10,0 °C 5,6 °C 76 % 1000,6 hPa 0,0 l/m² 0 min 82 W/m² 22,5 km/h (4 Bft) 91,67 %
25.03.2026 09:10 9,3 °C 9,4 °C 5,6 °C 76 % 1000,6 hPa 0,0 l/m² 0 min 86 W/m² 22,5 km/h (4 Bft) 93,62 %
25.03.2026 09:12 9,3 °C 9,4 °C 5,6 °C 76 % 1000,7 hPa 0,0 l/m² 0 min 108 W/m² 22,5 km/h (4 Bft) 95,74 %
25.03.2026 09:14 9,3 °C 9,4 °C 5,6 °C 76 % 1000,7 hPa 0,0 l/m² 0 min 141 W/m² 19,3 km/h (3 Bft) 93,62 %
25.03.2026 09:16 9,3 °C 9,4 °C 5,6 °C 76 % 1000,9 hPa 0,0 l/m² 0 min 133 W/m² 29,0 km/h (5 Bft) 91,30 %
25.03.2026 09:18 9,3 °C 9,4 °C 5,6 °C 76 % 1000,8 hPa 0,0 l/m² 0 min 147 W/m² 25,7 km/h (4 Bft) 93,62 %
25.03.2026 09:20 9,3 °C 9,4 °C 5,6 °C 75 % 1000,9 hPa 0,0 l/m² 0 min 132 W/m² 19,3 km/h (3 Bft) 93,62 %
25.03.2026 09:22 9,3 °C 9,4 °C 5,6 °C 75 % 1001,3 hPa 0,0 l/m² 0 min 132 W/m² 25,7 km/h (4 Bft) 93,62 %
25.03.2026 09:24 9,3 °C 9,4 °C 5,6 °C 75 % 1001,0 hPa 0,0 l/m² 0 min 113 W/m² 19,3 km/h (3 Bft) 91,49 %
25.03.2026 09:26 9,3 °C 8,9 °C 5,6 °C 75 % 1001,0 hPa 0,0 l/m² 0 min 104 W/m² 22,5 km/h (4 Bft) 93,62 %
25.03.2026 09:28 9,3 °C 8,9 °C 5,6 °C 74 % 1001,1 hPa 0,0 l/m² 0 min 98 W/m² 19,3 km/h (3 Bft) 91,30 %
25.03.2026 09:30 9,2 °C 8,9 °C 5,6 °C 75 % 1001,0 hPa 0,0 l/m² 0 min 92 W/m² 22,5 km/h (4 Bft) 91,49 %
25.03.2026 09:32 9,2 °C 8,9 °C 5,6 °C 75 % 1001,2 hPa 0,0 l/m² 0 min 105 W/m² 22,5 km/h (4 Bft) 93,62 %
25.03.2026 09:34 9,2 °C 10,6 °C 5,6 °C 75 % 1001,3 hPa 0,0 l/m² 0 min 104 W/m² 19,3 km/h (3 Bft) 95,74 %
25.03.2026 09:36 9,2 °C 10,0 °C 5,6 °C 75 % 1001,2 hPa 0,0 l/m² 0 min 78 W/m² 12,9 km/h (3 Bft) 94,29 %
25.03.2026 09:38 9,3 °C 11,1 °C 5,6 °C 76 % 1001,2 hPa 0,0 l/m² 2 min 281 W/m² 22,5 km/h (4 Bft) 96,77 %
25.03.2026 09:40 9,3 °C 11,7 °C 6,1 °C 75 % 1001,2 hPa 0,0 l/m² 2 min 413 W/m² 32,2 km/h (5 Bft) 95,65 %
25.03.2026 09:42 9,4 °C 12,2 °C 6,7 °C 75 % 1001,2 hPa 0,0 l/m² 2 min 339 W/m² 22,5 km/h (4 Bft) 97,87 %
25.03.2026 09:44 9,6 °C 12,2 °C 7,2 °C 75 % 1001,3 hPa 0,0 l/m² 2 min 241 W/m² 19,3 km/h (3 Bft) 97,87 %
25.03.2026 09:46 9,7 °C 12,2 °C 7,2 °C 75 % 1001,3 hPa 0,0 l/m² 0 min 224 W/m² 19,3 km/h (3 Bft) 97,87 %
25.03.2026 09:48 9,8 °C 11,1 °C 7,2 °C 74 % 1001,4 hPa 0,0 l/m² 0 min 234 W/m² 29,0 km/h (5 Bft) 100,00 %
25.03.2026 09:50 9,8 °C 10,6 °C 6,7 °C 74 % 1001,3 hPa 0,0 l/m² 2 min 261 W/m² 35,4 km/h (5 Bft) 100,00 %
25.03.2026 09:52 9,8 °C 10,0 °C 6,7 °C 73 % 1001,2 hPa 0,0 l/m² 0 min 132 W/m² 22,5 km/h (4 Bft) 97,83 %
25.03.2026 09:54 9,7 °C 10,0 °C 6,1 °C 73 % 1001,2 hPa 0,0 l/m² 0 min 98 W/m² 19,3 km/h (3 Bft) 100,00 %
25.03.2026 09:56 9,7 °C 9,4 °C 6,1 °C 73 % 1001,4 hPa 0,0 l/m² 0 min 99 W/m² 29,0 km/h (5 Bft) 97,87 %
25.03.2026 09:58 9,6 °C 9,4 °C 6,1 °C 72 % 1001,3 hPa 0,0 l/m² 0 min 140 W/m² 29,0 km/h (5 Bft) 100,00 %
25.03.2026 10:00 9,6 °C 10,0 °C 6,1 °C 72 % 1001,3 hPa 0,0 l/m² 0 min 205 W/m² 25,7 km/h (4 Bft) 100,00 %
25.03.2026 10:02 9,6 °C 10,6 °C 6,7 °C 72 % 1001,3 hPa 0,0 l/m² 0 min 220 W/m² 25,7 km/h (4 Bft) 100,00 %
25.03.2026 10:04 9,7 °C 10,6 °C 6,7 °C 73 % 1001,5 hPa 0,0 l/m² 0 min 191 W/m² 19,3 km/h (3 Bft) 100,00 %
25.03.2026 10:06 9,8 °C 10,0 °C 6,1 °C 72 % 1001,5 hPa 0,0 l/m² 0 min 111 W/m² 19,3 km/h (3 Bft) 97,87 %
25.03.2026 10:08 9,7 °C 9,4 °C 6,1 °C 72 % 1001,5 hPa 0,0 l/m² 0 min 76 W/m² 38,6 km/h (5 Bft) 100,00 %
25.03.2026 10:10 9,7 °C 9,4 °C 5,6 °C 72 % 1001,4 hPa 0,0 l/m² 0 min 70 W/m² 25,7 km/h (4 Bft) 100,00 %
25.03.2026 10:12 9,6 °C 8,9 °C 5,6 °C 72 % 1001,5 hPa 0,0 l/m² 0 min 61 W/m² 38,6 km/h (5 Bft) 100,00 %
25.03.2026 10:14 9,6 °C 8,9 °C 5,6 °C 74 % 1001,6 hPa 0,0 l/m² 0 min 46 W/m² 25,7 km/h (4 Bft) 97,87 %
25.03.2026 10:16 9,3 °C 8,3 °C 5,0 °C 76 % 1001,7 hPa 0,0 l/m² 0 min 63 W/m² 16,1 km/h (3 Bft) 97,83 %
25.03.2026 10:18 9,2 °C 7,8 °C 5,0 °C 78 % 1001,7 hPa 0,0 l/m² 0 min 87 W/m² 29,0 km/h (5 Bft) 100,00 %
25.03.2026 10:20 8,9 °C 7,8 °C 4,4 °C 79 % 1001,7 hPa 0,0 l/m² 0 min 76 W/m² 25,7 km/h (4 Bft) 100,00 %
25.03.2026 10:22 8,8 °C 7,8 °C 4,4 °C 80 % 1001,8 hPa 0,0 l/m² 0 min 62 W/m² 29,0 km/h (5 Bft) 100,00 %
25.03.2026 10:24 8,6 °C 7,8 °C 4,4 °C 80 % 1001,8 hPa 0,0 l/m² 0 min 73 W/m² 16,1 km/h (3 Bft) 100,00 %
25.03.2026 10:26 8,4 °C 7,8 °C 4,4 °C 81 % 1001,8 hPa 0,0 l/m² 0 min 124 W/m² 19,3 km/h (3 Bft) 100,00 %
25.03.2026 10:28 8,4 °C 9,4 °C 5,0 °C 81 % 1001,9 hPa 0,0 l/m² 0 min 249 W/m² 22,5 km/h (4 Bft) 97,87 %
25.03.2026 10:30 8,4 °C 10,0 °C 5,6 °C 82 % 1001,8 hPa 0,0 l/m² 2 min 332 W/m² 19,3 km/h (3 Bft) 100,00 %
25.03.2026 10:32 8,6 °C 11,1 °C 6,1 °C 82 % 1001,8 hPa 0,0 l/m² 2 min 359 W/m² 16,1 km/h (3 Bft) 100,00 %
25.03.2026 10:34 8,7 °C 11,1 °C 6,7 °C 82 % 1001,9 hPa 0,0 l/m² 2 min 371 W/m² 22,5 km/h (4 Bft) 97,87 %
25.03.2026 10:36 8,8 °C 11,7 °C 6,7 °C 82 % 1001,8 hPa 0,0 l/m² 2 min 351 W/m² 29,0 km/h (5 Bft) 97,87 %
25.03.2026 10:38 8,9 °C 11,7 °C 7,2 °C 81 % 1001,8 hPa 0,0 l/m² 2 min 321 W/m² 19,3 km/h (3 Bft) 97,83 %
25.03.2026 10:40 9,1 °C 10,6 °C 6,7 °C 80 % 1001,9 hPa 0,0 l/m² 0 min 175 W/m² 22,5 km/h (4 Bft) 97,87 %
25.03.2026 10:42 9,1 °C 10,0 °C 6,1 °C 80 % 1001,8 hPa 0,0 l/m² 0 min 117 W/m² 19,3 km/h (3 Bft) 78,72 %
25.03.2026 10:44 9,1 °C 9,4 °C 6,1 °C 80 % 1001,9 hPa 0,0 l/m² 0 min 72 W/m² 19,3 km/h (3 Bft) 78,72 %
25.03.2026 10:46 9,1 °C 8,9 °C 5,6 °C 80 % 1002,0 hPa 0,0 l/m² 0 min 66 W/m² 35,4 km/h (5 Bft) 100,00 %
25.03.2026 10:48 9,0 °C 8,9 °C 5,0 °C 80 % 1001,9 hPa 0,0 l/m² 0 min 108 W/m² 22,5 km/h (4 Bft) 100,00 %
25.03.2026 10:50 8,9 °C 8,9 °C 5,0 °C 81 % 1001,9 hPa 0,0 l/m² 0 min 152 W/m² 16,1 km/h (3 Bft) 100,00 %
25.03.2026 10:52 8,9 °C 8,9 °C 5,0 °C 81 % 1002,2 hPa 0,0 l/m² 0 min 180 W/m² 19,3 km/h (3 Bft) 97,87 %
25.03.2026 10:54 8,7 °C 8,3 °C 4,4 °C 82 % 1002,6 hPa 0,0 l/m² 0 min 95 W/m² 48,3 km/h (6 Bft) 97,87 %
25.03.2026 10:56 8,4 °C 7,2 °C 3,3 °C 81 % 1002,6 hPa 0,0 l/m² 0 min 42 W/m² 35,4 km/h (5 Bft) 100,00 %
25.03.2026 10:58 8,1 °C 6,7 °C 2,8 °C 81 % 1002,7 hPa 0,0 l/m² 0 min 49 W/m² 38,6 km/h (5 Bft) 100,00 %
25.03.2026 11:00 7,7 °C 6,1 °C 2,2 °C 82 % 1002,8 hPa 0,2 l/m² 0 min 56 W/m² 32,2 km/h (5 Bft) 100,00 %
25.03.2026 11:02 7,3 °C 5,6 °C 1,7 °C 82 % 1002,8 hPa 0,0 l/m² 0 min 69 W/m² 41,8 km/h (6 Bft) 97,83 %
25.03.2026 11:04 7,0 °C 5,0 °C 1,1 °C 83 % 1002,8 hPa 0,2 l/m² 0 min 61 W/m² 32,2 km/h (5 Bft) 97,87 %
25.03.2026 11:06 6,6 °C 5,0 °C 1,1 °C 84 % 1002,9 hPa 0,2 l/m² 0 min 44 W/m² 29,0 km/h (5 Bft) 95,74 %
25.03.2026 11:08 6,3 °C 5,0 °C 1,1 °C 85 % 1003,0 hPa 0,2 l/m² 0 min 35 W/m² 22,5 km/h (4 Bft) 95,74 %
25.03.2026 11:10 6,1 °C 4,4 °C 1,1 °C 85 % 1003,1 hPa 0,0 l/m² 0 min 39 W/m² 32,2 km/h (5 Bft) 97,87 %
25.03.2026 11:12 5,9 °C 5,0 °C 1,1 °C 86 % 1003,1 hPa 0,0 l/m² 0 min 47 W/m² 22,5 km/h (4 Bft) 97,87 %
25.03.2026 11:14 5,8 °C 5,0 °C 1,1 °C 87 % 1003,0 hPa 0,2 l/m² 0 min 59 W/m² 19,3 km/h (3 Bft) 97,83 %
25.03.2026 11:16 5,8 °C 5,0 °C 1,1 °C 87 % 1003,2 hPa 0,0 l/m² 0 min 75 W/m² 35,4 km/h (5 Bft) 97,87 %
25.03.2026 11:18 5,6 °C 5,0 °C 1,1 °C 87 % 1003,1 hPa 0,0 l/m² 0 min 85 W/m² 25,7 km/h (4 Bft) 97,87 %
25.03.2026 11:20 5,5 °C 5,0 °C 1,1 °C 88 % 1003,2 hPa 0,0 l/m² 0 min 97 W/m² 35,4 km/h (5 Bft) 97,87 %
25.03.2026 11:22 5,4 °C 5,0 °C 1,1 °C 88 % 1003,3 hPa 0,0 l/m² 0 min 104 W/m² 35,4 km/h (5 Bft) 97,87 %
25.03.2026 11:24 5,3 °C 5,0 °C 1,1 °C 89 % 1003,4 hPa 0,0 l/m² 0 min 133 W/m² 32,2 km/h (5 Bft) 97,87 %
25.03.2026 11:26 5,3 °C 5,0 °C 0,6 °C 89 % 1003,4 hPa 0,0 l/m² 0 min 174 W/m² 32,2 km/h (5 Bft) 97,83 %
25.03.2026 11:28 5,2 °C 5,6 °C 1,1 °C 89 % 1003,5 hPa 0,0 l/m² 0 min 187 W/m² 45,1 km/h (6 Bft) 95,74 %
25.03.2026 11:30 5,2 °C 5,6 °C 1,1 °C 90 % 1003,6 hPa 0,0 l/m² 0 min 162 W/m² 22,5 km/h (4 Bft) 100,00 %
25.03.2026 11:32 5,2 °C 5,6 °C 1,1 °C 90 % 1003,5 hPa 0,0 l/m² 0 min 126 W/m² 19,3 km/h (3 Bft) 97,87 %
25.03.2026 11:34 5,2 °C 5,6 °C 1,1 °C 90 % 1003,5 hPa 0,2 l/m² 0 min 116 W/m² 16,1 km/h (3 Bft) 100,00 %
25.03.2026 11:36 5,2 °C 5,6 °C 1,1 °C 90 % 1003,5 hPa 0,0 l/m² 0 min 104 W/m² 19,3 km/h (3 Bft) 100,00 %
25.03.2026 11:38 5,2 °C 5,0 °C 1,1 °C 91 % 1003,6 hPa 0,0 l/m² 0 min 96 W/m² 9,7 km/h (2 Bft) 97,83 %
25.03.2026 11:40 5,2 °C 5,0 °C 1,1 °C 91 % 1003,6 hPa 0,0 l/m² 0 min 88 W/m² 16,1 km/h (3 Bft) 97,87 %
25.03.2026 11:42 5,2 °C 5,0 °C 1,1 °C 91 % 1003,6 hPa 0,0 l/m² 0 min 95 W/m² 6,4 km/h (2 Bft) 97,87 %
25.03.2026 11:44 5,2 °C 5,0 °C 1,1 °C 91 % 1003,6 hPa 0,0 l/m² 0 min 117 W/m² 16,1 km/h (3 Bft) 97,87 %
25.03.2026 11:46 5,2 °C 5,6 °C 1,1 °C 91 % 1003,6 hPa 0,0 l/m² 0 min 145 W/m² 12,9 km/h (3 Bft) 97,87 %
25.03.2026 11:48 5,2 °C 5,6 °C 1,7 °C 91 % 1003,5 hPa 0,0 l/m² 0 min 163 W/m² 9,7 km/h (2 Bft) 97,87 %
25.03.2026 11:50 5,2 °C 5,6 °C 1,7 °C 91 % 1003,5 hPa 0,0 l/m² 0 min 170 W/m² 9,7 km/h (2 Bft) 97,83 %
25.03.2026 11:52 5,3 °C 5,6 °C 1,7 °C 91 % 1003,5 hPa 0,0 l/m² 0 min 154 W/m² 12,9 km/h (3 Bft) 93,62 %
25.03.2026 11:54 5,3 °C 5,6 °C 1,1 °C 91 % 1003,5 hPa 0,0 l/m² 0 min 145 W/m² 19,3 km/h (3 Bft) 97,87 %
25.03.2026 11:56 5,3 °C 5,6 °C 1,7 °C 92 % 1003,5 hPa 0,0 l/m² 0 min 150 W/m² 9,7 km/h (2 Bft) 95,74 %
25.03.2026 11:58 5,3 °C 5,6 °C 1,1 °C 92 % 1003,6 hPa 0,0 l/m² 0 min 168 W/m² 16,1 km/h (3 Bft) 97,87 %
25.03.2026 12:00 5,3 °C 5,6 °C 1,7 °C 92 % 1003,6 hPa 0,0 l/m² 0 min 196 W/m² 12,9 km/h (3 Bft) 97,87 %
25.03.2026 12:02 5,3 °C 6,1 °C 1,7 °C 92 % 1003,6 hPa 0,0 l/m² 0 min 200 W/m² 19,3 km/h (3 Bft) 95,65 %
25.03.2026 12:04 5,3 °C 6,1 °C 1,7 °C 92 % 1003,6 hPa 0,0 l/m² 0 min 188 W/m² 16,1 km/h (3 Bft) 95,24 %
25.03.2026 12:08 5,4 °C 6,1 °C 1,7 °C 92 % 1003,7 hPa 0,0 l/m² 0 min 158 W/m² 12,9 km/h (3 Bft) 92,23 %
25.03.2026 12:12 5,5 °C 6,1 °C 2,2 °C 92 % 1003,7 hPa 0,0 l/m² 0 min 118 W/m² 9,7 km/h (2 Bft) 92,31 %
25.03.2026 12:14 5,6 °C 5,6 °C 2,2 °C 92 % 1003,7 hPa 0,0 l/m² 0 min 115 W/m² 9,7 km/h (2 Bft) 93,62 %
25.03.2026 12:16 5,5 °C 5,6 °C 1,7 °C 92 % 1003,7 hPa 0,0 l/m² 0 min 96 W/m² 12,9 km/h (3 Bft) 95,65 %
25.03.2026 12:18 5,4 °C 5,0 °C 1,7 °C 92 % 1003,7 hPa 0,0 l/m² 0 min 76 W/m² 16,1 km/h (3 Bft) 95,74 %
25.03.2026 12:20 5,4 °C 5,0 °C 1,7 °C 92 % 1003,8 hPa 0,0 l/m² 0 min 68 W/m² 16,1 km/h (3 Bft) 95,74 %
25.03.2026 12:22 5,4 °C 5,0 °C 1,1 °C 92 % 1003,7 hPa 0,2 l/m² 0 min 78 W/m² 12,9 km/h (3 Bft) 93,62 %
25.03.2026 12:24 5,4 °C 5,0 °C 1,1 °C 92 % 1003,7 hPa 0,0 l/m² 0 min 92 W/m² 12,9 km/h (3 Bft) 95,74 %
25.03.2026 12:26 5,4 °C 5,0 °C 1,7 °C 92 % 1003,8 hPa 0,0 l/m² 0 min 91 W/m² 6,4 km/h (2 Bft) 93,62 %
25.03.2026 12:28 5,4 °C 5,6 °C 1,7 °C 92 % 1003,7 hPa 0,0 l/m² 0 min 122 W/m² 3,2 km/h (1 Bft) 93,48 %
25.03.2026 12:30 5,4 °C 5,6 °C 1,7 °C 92 % 1003,7 hPa 0,0 l/m² 0 min 147 W/m² 6,4 km/h (2 Bft) 95,74 %
25.03.2026 12:32 5,5 °C 6,1 °C 1,7 °C 92 % 1003,6 hPa 0,0 l/m² 0 min 156 W/m² 6,4 km/h (2 Bft) 95,74 %
25.03.2026 12:34 5,6 °C 6,1 °C 2,2 °C 92 % 1003,6 hPa 0,0 l/m² 0 min 162 W/m² 6,4 km/h (2 Bft) 93,62 %
25.03.2026 12:36 5,7 °C 6,1 °C 2,2 °C 93 % 1003,6 hPa 0,0 l/m² 0 min 176 W/m² 6,4 km/h (2 Bft) 93,62 %
25.03.2026 12:38 5,7 °C 6,1 °C 1,7 °C 93 % 1003,6 hPa 0,0 l/m² 0 min 188 W/m² 9,7 km/h (2 Bft) 95,65 %
25.03.2026 12:40 5,7 °C 6,1 °C 2,2 °C 93 % 1003,6 hPa 0,0 l/m² 0 min 196 W/m² 6,4 km/h (2 Bft) 95,74 %
25.03.2026 12:42 5,8 °C 6,7 °C 2,2 °C 93 % 1003,6 hPa 0,0 l/m² 0 min 201 W/m² 6,4 km/h (2 Bft) 93,62 %
25.03.2026 12:44 5,8 °C 6,7 °C 2,2 °C 93 % 1003,6 hPa 0,0 l/m² 0 min 199 W/m² 6,4 km/h (2 Bft) 93,62 %
25.03.2026 12:46 5,8 °C 6,7 °C 2,2 °C 93 % 1003,6 hPa 0,0 l/m² 0 min 208 W/m² 6,4 km/h (2 Bft) 95,74 %
25.03.2026 12:48 5,9 °C 6,7 °C 2,2 °C 93 % 1003,6 hPa 0,0 l/m² 0 min 224 W/m² 12,9 km/h (3 Bft) 95,74 %
25.03.2026 12:50 6,0 °C 7,2 °C 2,8 °C 93 % 1003,6 hPa 0,0 l/m² 0 min 248 W/m² 6,4 km/h (2 Bft) 93,48 %
25.03.2026 12:52 6,1 °C 7,2 °C 2,8 °C 93 % 1003,7 hPa 0,0 l/m² 0 min 248 W/m² 6,4 km/h (2 Bft) 95,74 %
25.03.2026 12:54 6,2 °C 7,2 °C 2,8 °C 93 % 1003,7 hPa 0,0 l/m² 0 min 249 W/m² 6,4 km/h (2 Bft) 97,87 %
25.03.2026 12:56 6,3 °C 7,8 °C 3,3 °C 93 % 1003,7 hPa 0,0 l/m² 0 min 247 W/m² 16,1 km/h (3 Bft) 93,62 %
25.03.2026 12:58 6,3 °C 7,2 °C 3,3 °C 93 % 1003,8 hPa 0,0 l/m² 0 min 200 W/m² 16,1 km/h (3 Bft) 97,87 %
25.03.2026 13:00 6,4 °C 7,2 °C 2,8 °C 93 % 1003,7 hPa 0,0 l/m² 0 min 140 W/m² 16,1 km/h (3 Bft) 95,74 %
25.03.2026 13:02 6,4 °C 6,7 °C 2,8 °C 93 % 1003,7 hPa 0,0 l/m² 0 min 119 W/m² 12,9 km/h (3 Bft) 97,83 %
25.03.2026 13:04 6,4 °C 6,7 °C 2,8 °C 92 % 1003,7 hPa 0,0 l/m² 0 min 114 W/m² 16,1 km/h (3 Bft) 97,96 %
25.03.2026 13:06 6,3 °C 6,7 °C 2,8 °C 92 % 1003,7 hPa 0,0 l/m² 0 min 88 W/m² 16,1 km/h (3 Bft) 97,87 %
25.03.2026 13:08 6,3 °C 6,7 °C 2,8 °C 92 % 1003,7 hPa 0,0 l/m² 0 min 117 W/m² 19,3 km/h (3 Bft) 95,74 %
25.03.2026 13:10 6,3 °C 6,7 °C 2,8 °C 91 % 1003,7 hPa 0,0 l/m² 0 min 118 W/m² 12,9 km/h (3 Bft) 97,87 %
25.03.2026 13:12 6,3 °C 6,7 °C 2,8 °C 91 % 1003,7 hPa 0,0 l/m² 0 min 130 W/m² 29,0 km/h (5 Bft) 100,00 %
25.03.2026 13:14 6,3 °C 6,7 °C 2,8 °C 91 % 1003,7 hPa 0,0 l/m² 0 min 127 W/m² 16,1 km/h (3 Bft) 97,83 %
25.03.2026 13:16 6,4 °C 6,7 °C 2,8 °C 91 % 1003,7 hPa 0,0 l/m² 0 min 155 W/m² 12,9 km/h (3 Bft) 100,00 %
25.03.2026 13:18 6,4 °C 7,2 °C 2,8 °C 91 % 1003,7 hPa 0,0 l/m² 0 min 189 W/m² 12,9 km/h (3 Bft) 100,00 %
25.03.2026 13:20 6,5 °C 7,2 °C 3,3 °C 91 % 1003,8 hPa 0,0 l/m² 0 min 174 W/m² 19,3 km/h (3 Bft) 97,87 %
25.03.2026 13:22 6,6 °C 7,2 °C 3,3 °C 91 % 1003,8 hPa 0,0 l/m² 0 min 176 W/m² 12,9 km/h (3 Bft) 100,00 %
25.03.2026 13:24 6,6 °C 7,2 °C 3,3 °C 91 % 1003,8 hPa 0,0 l/m² 0 min 145 W/m² 12,9 km/h (3 Bft) 100,00 %
25.03.2026 13:26 6,7 °C 7,2 °C 3,3 °C 91 % 1003,8 hPa 0,0 l/m² 0 min 170 W/m² 12,9 km/h (3 Bft) 100,00 %
25.03.2026 13:28 6,8 °C 7,2 °C 3,3 °C 91 % 1003,8 hPa 0,0 l/m² 0 min 204 W/m² 12,9 km/h (3 Bft) 100,00 %
25.03.2026 13:30 6,8 °C 7,8 °C 3,9 °C 91 % 1003,8 hPa 0,0 l/m² 0 min 246 W/m² 3,2 km/h (1 Bft) 97,87 %
25.03.2026 13:32 6,9 °C 7,8 °C 3,9 °C 91 % 1003,8 hPa 0,0 l/m² 0 min 295 W/m² 9,7 km/h (2 Bft) 100,00 %
25.03.2026 13:34 7,0 °C 8,3 °C 3,9 °C 91 % 1003,8 hPa 0,0 l/m² 2 min 325 W/m² 16,1 km/h (3 Bft) 100,00 %
25.03.2026 13:36 7,1 °C 8,9 °C 4,4 °C 91 % 1003,7 hPa 0,0 l/m² 0 min 296 W/m² 12,9 km/h (3 Bft) 100,00 %
25.03.2026 13:38 7,2 °C 8,9 °C 4,4 °C 91 % 1003,8 hPa 0,0 l/m² 0 min 291 W/m² 9,7 km/h (2 Bft) 97,83 %
25.03.2026 13:40 7,3 °C 8,9 °C 4,4 °C 91 % 1003,7 hPa 0,0 l/m² 0 min 268 W/m² 16,1 km/h (3 Bft) 100,00 %
25.03.2026 13:42 7,4 °C 8,9 °C 4,4 °C 91 % 1003,8 hPa 0,0 l/m² 0 min 259 W/m² 6,4 km/h (2 Bft) 100,00 %
25.03.2026 13:44 7,4 °C 8,9 °C 4,4 °C 90 % 1003,7 hPa 0,0 l/m² 0 min 304 W/m² 16,1 km/h (3 Bft) 100,00 %
25.03.2026 13:46 7,4 °C 8,3 °C 4,4 °C 89 % 1003,7 hPa 0,0 l/m² 2 min 318 W/m² 22,5 km/h (4 Bft) 100,00 %
25.03.2026 13:48 7,5 °C 8,9 °C 4,4 °C 89 % 1003,7 hPa 0,0 l/m² 2 min 313 W/m² 16,1 km/h (3 Bft) 100,00 %
25.03.2026 13:50 7,6 °C 8,9 °C 4,4 °C 89 % 1003,7 hPa 0,0 l/m² 2 min 311 W/m² 19,3 km/h (3 Bft) 95,74 %
25.03.2026 13:52 7,6 °C 9,4 °C 4,4 °C 88 % 1003,8 hPa 0,0 l/m² 2 min 331 W/m² 19,3 km/h (3 Bft) 97,87 %
25.03.2026 13:54 7,7 °C 9,4 °C 5,0 °C 88 % 1003,8 hPa 0,0 l/m² 2 min 322 W/m² 22,5 km/h (4 Bft) 100,00 %
25.03.2026 13:56 7,8 °C 9,4 °C 5,0 °C 88 % 1003,8 hPa 0,0 l/m² 2 min 308 W/m² 12,9 km/h (3 Bft) 100,00 %
25.03.2026 13:58 7,9 °C 10,0 °C 5,0 °C 87 % 1003,8 hPa 0,0 l/m² 2 min 350 W/m² 12,9 km/h (3 Bft) 100,00 %
25.03.2026 14:00 8,0 °C 11,1 °C 5,0 °C 87 % 1003,7 hPa 0,0 l/m² 2 min 496 W/m² 16,1 km/h (3 Bft) 100,00 %
25.03.2026 14:02 8,2 °C 11,7 °C 5,6 °C 87 % 1003,7 hPa 0,0 l/m² 2 min 453 W/m² 12,9 km/h (3 Bft) 100,00 %
25.03.2026 14:04 8,3 °C 11,7 °C 5,6 °C 86 % 1003,7 hPa 0,0 l/m² 2 min 525 W/m² 12,9 km/h (3 Bft) 100,00 %
25.03.2026 14:06 8,5 °C 11,1 °C 5,6 °C 86 % 1003,7 hPa 0,0 l/m² 2 min 314 W/m² 16,1 km/h (3 Bft) 100,00 %
25.03.2026 14:08 8,5 °C 10,0 °C 5,0 °C 84 % 1003,8 hPa 0,0 l/m² 2 min 301 W/m² 22,5 km/h (4 Bft) 100,00 %
25.03.2026 14:10 8,5 °C 10,0 °C 5,0 °C 83 % 1003,8 hPa 0,0 l/m² 2 min 312 W/m² 16,1 km/h (3 Bft) 100,00 %
25.03.2026 14:12 8,5 °C 10,6 °C 5,0 °C 83 % 1003,8 hPa 0,0 l/m² 2 min 370 W/m² 19,3 km/h (3 Bft) 100,00 %
25.03.2026 14:14 8,6 °C 11,1 °C 5,0 °C 83 % 1003,9 hPa 0,0 l/m² 2 min 389 W/m² 22,5 km/h (4 Bft) 100,00 %
25.03.2026 14:16 8,7 °C 10,6 °C 5,6 °C 82 % 1003,9 hPa 0,0 l/m² 2 min 358 W/m² 16,1 km/h (3 Bft) 100,00 %
25.03.2026 14:18 8,7 °C 10,6 °C 5,6 °C 82 % 1004,0 hPa 0,0 l/m² 2 min 332 W/m² 19,3 km/h (3 Bft) 100,00 %
25.03.2026 14:20 8,8 °C 12,8 °C 5,6 °C 82 % 1003,9 hPa 0,0 l/m² 2 min 348 W/m² 16,1 km/h (3 Bft) 100,00 %
25.03.2026 14:22 9,0 °C 12,2 °C 6,1 °C 82 % 1004,0 hPa 0,0 l/m² 2 min 375 W/m² 12,9 km/h (3 Bft) 100,00 %
25.03.2026 14:24 9,1 °C 11,1 °C 6,1 °C 81 % 1004,0 hPa 0,0 l/m² 2 min 363 W/m² 12,9 km/h (3 Bft) 100,00 %
25.03.2026 14:26 9,1 °C 10,0 °C 5,6 °C 80 % 1004,0 hPa 0,0 l/m² 0 min 206 W/m² 19,3 km/h (3 Bft) 100,00 %
25.03.2026 14:28 8,9 °C 9,4 °C 5,0 °C 79 % 1004,0 hPa 0,0 l/m² 0 min 161 W/m² 22,5 km/h (4 Bft) 97,87 %
25.03.2026 14:30 8,8 °C 8,9 °C 5,0 °C 78 % 1004,0 hPa 0,0 l/m² 0 min 163 W/m² 19,3 km/h (3 Bft) 100,00 %
25.03.2026 14:32 8,8 °C 8,9 °C 5,0 °C 78 % 1004,0 hPa 0,0 l/m² 0 min 157 W/m² 19,3 km/h (3 Bft) 100,00 %
25.03.2026 14:34 8,7 °C 8,9 °C 5,0 °C 78 % 1004,0 hPa 0,0 l/m² 0 min 133 W/m² 25,7 km/h (4 Bft) 97,87 %
25.03.2026 14:36 8,7 °C 8,3 °C 5,0 °C 78 % 1004,0 hPa 0,0 l/m² 0 min 110 W/m² 16,1 km/h (3 Bft) 95,65 %
25.03.2026 14:38 8,6 °C 8,3 °C 4,4 °C 79 % 1004,0 hPa 0,0 l/m² 0 min 93 W/m² 16,1 km/h (3 Bft) 97,87 %
25.03.2026 14:40 8,6 °C 8,3 °C 4,4 °C 79 % 1004,0 hPa 0,0 l/m² 0 min 106 W/m² 16,1 km/h (3 Bft) 97,87 %
25.03.2026 14:42 8,6 °C 8,3 °C 4,4 °C 79 % 1004,0 hPa 0,0 l/m² 0 min 92 W/m² 12,9 km/h (3 Bft) 95,74 %
25.03.2026 14:44 8,6 °C 8,3 °C 4,4 °C 79 % 1004,1 hPa 0,0 l/m² 0 min 80 W/m² 16,1 km/h (3 Bft) 97,87 %
25.03.2026 14:46 8,4 °C 7,8 °C 4,4 °C 79 % 1004,0 hPa 0,0 l/m² 0 min 81 W/m² 19,3 km/h (3 Bft) 97,83 %
25.03.2026 14:48 8,3 °C 7,8 °C 3,9 °C 80 % 1004,2 hPa 0,0 l/m² 0 min 79 W/m² 25,7 km/h (4 Bft) 95,74 %
25.03.2026 14:50 8,2 °C 7,2 °C 3,9 °C 81 % 1004,1 hPa 0,0 l/m² 0 min 81 W/m² 16,1 km/h (3 Bft) 93,62 %
25.03.2026 14:52 8,2 °C 7,2 °C 3,3 °C 82 % 1004,2 hPa 0,0 l/m² 0 min 86 W/m² 25,7 km/h (4 Bft) 95,74 %
25.03.2026 14:54 8,1 °C 7,2 °C 3,3 °C 82 % 1004,3 hPa 0,0 l/m² 0 min 88 W/m² 19,3 km/h (3 Bft) 95,74 %
25.03.2026 14:56 7,8 °C 6,7 °C 2,8 °C 83 % 1004,3 hPa 0,0 l/m² 0 min 87 W/m² 19,3 km/h (3 Bft) 95,74 %
25.03.2026 14:58 7,6 °C 6,7 °C 2,8 °C 83 % 1004,2 hPa 0,0 l/m² 0 min 87 W/m² 12,9 km/h (3 Bft) 95,74 %
25.03.2026 15:00 7,4 °C 6,1 °C 2,8 °C 84 % 1004,3 hPa 0,0 l/m² 0 min 108 W/m² 12,9 km/h (3 Bft) 95,65 %
25.03.2026 15:02 7,3 °C 6,7 °C 2,8 °C 85 % 1004,3 hPa 0,0 l/m² 0 min 137 W/m² 9,7 km/h (2 Bft) 91,49 %
25.03.2026 15:04 7,2 °C 6,7 °C 2,8 °C 85 % 1004,3 hPa 0,0 l/m² 0 min 164 W/m² 12,9 km/h (3 Bft) 95,92 %
25.03.2026 15:06 7,2 °C 7,2 °C 3,3 °C 86 % 1004,3 hPa 0,0 l/m² 0 min 185 W/m² 9,7 km/h (2 Bft) 91,49 %
25.03.2026 15:08 7,2 °C 7,8 °C 3,3 °C 86 % 1004,4 hPa 0,0 l/m² 0 min 217 W/m² 6,4 km/h (2 Bft) 95,74 %
25.03.2026 15:10 7,3 °C 7,8 °C 3,3 °C 87 % 1004,3 hPa 0,0 l/m² 0 min 237 W/m² 9,7 km/h (2 Bft) 93,48 %
25.03.2026 15:12 7,3 °C 8,3 °C 3,3 °C 87 % 1004,4 hPa 0,0 l/m² 0 min 233 W/m² 12,9 km/h (3 Bft) 95,74 %
25.03.2026 15:14 7,3 °C 8,3 °C 3,9 °C 87 % 1004,4 hPa 0,0 l/m² 0 min 247 W/m² 9,7 km/h (2 Bft) 95,74 %
25.03.2026 15:16 7,4 °C 9,4 °C 3,9 °C 87 % 1004,4 hPa 0,0 l/m² 2 min 359 W/m² 9,7 km/h (2 Bft) 95,74 %
25.03.2026 15:18 7,6 °C 11,1 °C 4,4 °C 87 % 1004,4 hPa 0,0 l/m² 2 min 506 W/m² 12,9 km/h (3 Bft) 95,74 %
25.03.2026 15:20 7,7 °C 11,7 °C 4,4 °C 88 % 1004,3 hPa 0,0 l/m² 2 min 534 W/m² 12,9 km/h (3 Bft) 93,62 %
25.03.2026 15:22 8,0 °C 11,7 °C 4,4 °C 88 % 1004,4 hPa 0,0 l/m² 2 min 460 W/m² 12,9 km/h (3 Bft) 93,48 %
25.03.2026 15:27 8,4 °C 12,2 °C 4,4 °C 87 % 1004,5 hPa 0,0 l/m² 5 min 405 W/m² 16,1 km/h (3 Bft) 98,28 %
25.03.2026 15:28 8,4 °C 12,2 °C 4,4 °C 86 % 1004,5 hPa 0,0 l/m² 1 min 497 W/m² 9,7 km/h (2 Bft) 91,67 %
25.03.2026 15:30 8,6 °C 12,2 °C 4,4 °C 86 % 1004,5 hPa 0,0 l/m² 2 min 405 W/m² 12,9 km/h (3 Bft) 93,62 %
25.03.2026 15:32 8,8 °C 11,7 °C 4,4 °C 85 % 1004,5 hPa 0,0 l/m² 2 min 345 W/m² 9,7 km/h (2 Bft) 100,00 %
25.03.2026 15:34 8,8 °C 11,7 °C 4,4 °C 85 % 1004,5 hPa 0,0 l/m² 2 min 384 W/m² 9,7 km/h (2 Bft) 91,30 %
25.03.2026 15:36 8,9 °C 11,7 °C 4,4 °C 84 % 1004,5 hPa 0,0 l/m² 2 min 394 W/m² 16,1 km/h (3 Bft) 94,29 %
25.03.2026 15:41 8,9 °C 9,4 °C 5,0 °C 83 % 1004,6 hPa 0,0 l/m² 5 min 258 W/m² 19,3 km/h (3 Bft) 100,00 %
25.03.2026 15:42 8,9 °C 9,4 °C 5,0 °C 83 % 1004,6 hPa 0,0 l/m² 0 min 85 W/m² 16,1 km/h (3 Bft) 100,00 %
25.03.2026 15:44 8,9 °C 8,9 °C 5,0 °C 83 % 1004,5 hPa 0,0 l/m² 0 min 70 W/m² 16,1 km/h (3 Bft) 97,87 %
25.03.2026 15:46 8,8 °C 8,3 °C 5,0 °C 82 % 1004,7 hPa 0,0 l/m² 0 min 50 W/m² 25,7 km/h (4 Bft) 97,83 %
25.03.2026 15:48 8,7 °C 8,3 °C 4,4 °C 81 % 1004,6 hPa 0,0 l/m² 0 min 60 W/m² 25,7 km/h (4 Bft) 97,87 %
25.03.2026 15:50 8,6 °C 7,8 °C 4,4 °C 81 % 1004,5 hPa 0,0 l/m² 0 min 79 W/m² 22,5 km/h (4 Bft) 97,87 %
25.03.2026 15:52 8,4 °C 7,8 °C 4,4 °C 81 % 1004,4 hPa 0,0 l/m² 0 min 94 W/m² 16,1 km/h (3 Bft) 95,74 %
25.03.2026 15:54 8,4 °C 7,8 °C 4,4 °C 81 % 1004,4 hPa 0,0 l/m² 0 min 99 W/m² 16,1 km/h (3 Bft) 97,87 %
25.03.2026 15:56 8,3 °C 7,8 °C 4,4 °C 81 % 1004,4 hPa 0,0 l/m² 0 min 104 W/m² 19,3 km/h (3 Bft) 95,74 %
25.03.2026 15:58 8,2 °C 7,8 °C 3,9 °C 81 % 1004,4 hPa 0,0 l/m² 0 min 108 W/m² 16,1 km/h (3 Bft) 97,83 %
25.03.2026 16:00 8,1 °C 7,8 °C 3,9 °C 81 % 1004,4 hPa 0,0 l/m² 0 min 113 W/m² 22,5 km/h (4 Bft) 97,87 %
25.03.2026 16:02 8,0 °C 7,8 °C 3,9 °C 81 % 1004,4 hPa 0,0 l/m² 0 min 117 W/m² 9,7 km/h (2 Bft) 93,62 %
25.03.2026 16:04 8,0 °C 7,8 °C 3,9 °C 81 % 1004,4 hPa 0,0 l/m² 0 min 120 W/m² 16,1 km/h (3 Bft) 97,92 %
25.03.2026 16:06 7,9 °C 7,8 °C 3,9 °C 80 % 1004,5 hPa 0,0 l/m² 0 min 130 W/m² 25,7 km/h (4 Bft) 97,87 %
25.03.2026 16:08 7,9 °C 8,3 °C 3,9 °C 81 % 1004,6 hPa 0,0 l/m² 2 min 216 W/m² 22,5 km/h (4 Bft) 100,00 %
25.03.2026 16:10 7,9 °C 9,4 °C 4,4 °C 81 % 1004,5 hPa 0,0 l/m² 2 min 310 W/m² 16,1 km/h (3 Bft) 100,00 %
25.03.2026 16:12 8,1 °C 9,4 °C 4,4 °C 81 % 1004,5 hPa 0,0 l/m² 2 min 254 W/m² 12,9 km/h (3 Bft) 97,87 %
25.03.2026 16:14 8,1 °C 10,6 °C 4,4 °C 81 % 1004,5 hPa 0,0 l/m² 2 min 358 W/m² 19,3 km/h (3 Bft) 100,00 %
25.03.2026 16:16 8,3 °C 11,7 °C 4,4 °C 81 % 1004,6 hPa 0,0 l/m² 2 min 440 W/m² 12,9 km/h (3 Bft) 100,00 %
25.03.2026 16:18 8,4 °C 11,7 °C 5,0 °C 81 % 1004,6 hPa 0,0 l/m² 2 min 395 W/m² 19,3 km/h (3 Bft) 100,00 %
25.03.2026 16:20 8,6 °C 11,7 °C 5,0 °C 80 % 1004,6 hPa 0,0 l/m² 2 min 352 W/m² 19,3 km/h (3 Bft) 97,83 %
25.03.2026 16:22 8,7 °C 11,7 °C 5,0 °C 80 % 1004,5 hPa 0,0 l/m² 2 min 414 W/m² 19,3 km/h (3 Bft) 97,87 %
25.03.2026 16:24 8,8 °C 11,7 °C 5,0 °C 79 % 1004,5 hPa 0,0 l/m² 2 min 429 W/m² 16,1 km/h (3 Bft) 100,00 %
25.03.2026 16:26 8,8 °C 12,2 °C 5,0 °C 79 % 1004,5 hPa 0,0 l/m² 2 min 414 W/m² 12,9 km/h (3 Bft) 100,00 %
25.03.2026 16:28 9,0 °C 12,2 °C 5,0 °C 79 % 1004,5 hPa 0,0 l/m² 2 min 367 W/m² 12,9 km/h (3 Bft) 100,00 %
25.03.2026 16:30 9,1 °C 11,1 °C 5,0 °C 79 % 1004,5 hPa 0,0 l/m² 2 min 348 W/m² 16,1 km/h (3 Bft) 97,87 %
25.03.2026 16:32 9,2 °C 10,0 °C 5,0 °C 78 % 1004,6 hPa 0,0 l/m² 0 min 95 W/m² 16,1 km/h (3 Bft) 100,00 %
25.03.2026 16:34 9,2 °C 9,4 °C 5,0 °C 78 % 1004,6 hPa 0,0 l/m² 0 min 73 W/m² 22,5 km/h (4 Bft) 97,87 %
25.03.2026 16:36 9,1 °C 8,9 °C 5,0 °C 76 % 1004,7 hPa 0,0 l/m² 0 min 72 W/m² 32,2 km/h (5 Bft) 100,00 %
25.03.2026 16:38 8,9 °C 8,9 °C 4,4 °C 74 % 1004,7 hPa 0,0 l/m² 0 min 75 W/m² 22,5 km/h (4 Bft) 100,00 %
25.03.2026 16:40 8,9 °C 10,6 °C 5,0 °C 74 % 1004,7 hPa 0,0 l/m² 0 min 134 W/m² 29,0 km/h (5 Bft) 100,00 %
25.03.2026 16:42 9,0 °C 11,7 °C 5,0 °C 73 % 1004,7 hPa 0,0 l/m² 2 min 357 W/m² 22,5 km/h (4 Bft) 100,00 %
25.03.2026 16:44 9,1 °C 11,7 °C 5,0 °C 73 % 1004,7 hPa 0,0 l/m² 2 min 356 W/m² 19,3 km/h (3 Bft) 100,00 %
25.03.2026 16:46 9,2 °C 12,2 °C 5,6 °C 72 % 1004,9 hPa 0,0 l/m² 2 min 360 W/m² 29,0 km/h (5 Bft) 97,87 %
25.03.2026 16:48 9,4 °C 12,8 °C 5,6 °C 72 % 1004,8 hPa 0,0 l/m² 2 min 361 W/m² 19,3 km/h (3 Bft) 97,87 %
25.03.2026 16:50 9,6 °C 12,8 °C 5,6 °C 72 % 1004,9 hPa 0,0 l/m² 2 min 360 W/m² 22,5 km/h (4 Bft) 93,62 %
25.03.2026 16:52 9,7 °C 13,3 °C 5,6 °C 71 % 1004,9 hPa 0,0 l/m² 2 min 359 W/m² 16,1 km/h (3 Bft) 97,87 %
25.03.2026 16:54 9,8 °C 12,2 °C 6,1 °C 72 % 1005,0 hPa 0,0 l/m² 2 min 291 W/m² 12,9 km/h (3 Bft) 97,87 %
25.03.2026 16:56 9,8 °C 11,1 °C 5,6 °C 71 % 1005,0 hPa 0,0 l/m² 0 min 119 W/m² 32,2 km/h (5 Bft) 95,65 %
25.03.2026 16:58 9,8 °C 10,0 °C 5,6 °C 71 % 1005,0 hPa 0,0 l/m² 0 min 94 W/m² 19,3 km/h (3 Bft) 97,87 %
25.03.2026 17:00 9,7 °C 9,4 °C 5,6 °C 71 % 1005,1 hPa 0,0 l/m² 0 min 76 W/m² 22,5 km/h (4 Bft) 97,87 %
25.03.2026 17:02 9,7 °C 9,4 °C 5,0 °C 71 % 1005,1 hPa 0,0 l/m² 0 min 58 W/m² 12,9 km/h (3 Bft) 97,87 %
25.03.2026 17:04 9,6 °C 8,9 °C 5,0 °C 71 % 1005,1 hPa 0,0 l/m² 0 min 50 W/m² 22,5 km/h (4 Bft) 97,92 %
25.03.2026 17:06 9,4 °C 8,9 °C 5,0 °C 69 % 1005,3 hPa 0,0 l/m² 0 min 43 W/m² 35,4 km/h (5 Bft) 95,74 %
25.03.2026 17:08 9,3 °C 8,3 °C 5,0 °C 69 % 1005,2 hPa 0,0 l/m² 0 min 40 W/m² 29,0 km/h (5 Bft) 93,48 %
25.03.2026 17:10 9,2 °C 8,3 °C 5,0 °C 70 % 1005,3 hPa 0,0 l/m² 0 min 40 W/m² 29,0 km/h (5 Bft) 97,87 %
25.03.2026 17:12 9,1 °C 8,3 °C 4,4 °C 71 % 1005,3 hPa 0,0 l/m² 0 min 43 W/m² 25,7 km/h (4 Bft) 97,87 %
25.03.2026 17:14 9,1 °C 8,3 °C 4,4 °C 73 % 1005,3 hPa 0,2 l/m² 0 min 51 W/m² 16,1 km/h (3 Bft) 97,87 %
25.03.2026 17:16 8,9 °C 7,8 °C 4,4 °C 74 % 1005,3 hPa 0,0 l/m² 0 min 61 W/m² 19,3 km/h (3 Bft) 97,87 %
25.03.2026 17:18 8,8 °C 7,8 °C 4,4 °C 75 % 1005,3 hPa 0,0 l/m² 0 min 80 W/m² 9,7 km/h (2 Bft) 93,62 %
25.03.2026 17:20 8,7 °C 7,8 °C 4,4 °C 76 % 1005,3 hPa 0,0 l/m² 0 min 103 W/m² 9,7 km/h (2 Bft) 97,83 %
25.03.2026 17:22 8,6 °C 7,8 °C 3,9 °C 77 % 1005,4 hPa 0,0 l/m² 2 min 126 W/m² 6,4 km/h (2 Bft) 97,87 %
25.03.2026 17:24 8,4 °C 8,3 °C 4,4 °C 78 % 1005,3 hPa 0,0 l/m² 2 min 134 W/m² 12,9 km/h (3 Bft) 97,87 %
25.03.2026 17:26 8,4 °C 8,9 °C 4,4 °C 79 % 1005,4 hPa 0,0 l/m² 2 min 236 W/m² 9,7 km/h (2 Bft) 97,87 %
25.03.2026 17:28 8,5 °C 9,4 °C 5,0 °C 79 % 1005,4 hPa 0,0 l/m² 2 min 209 W/m² 12,9 km/h (3 Bft) 97,87 %
25.03.2026 17:30 8,6 °C 9,4 °C 5,0 °C 79 % 1005,3 hPa 0,0 l/m² 2 min 216 W/m² 6,4 km/h (2 Bft) 100,00 %
25.03.2026 17:32 8,7 °C 10,0 °C 5,0 °C 79 % 1005,4 hPa 0,0 l/m² 2 min 203 W/m² 6,4 km/h (2 Bft) 97,87 %
25.03.2026 17:34 8,8 °C 10,0 °C 5,6 °C 79 % 1005,5 hPa 0,0 l/m² 2 min 207 W/m² 6,4 km/h (2 Bft) 100,00 %
25.03.2026 17:36 8,8 °C 10,0 °C 5,6 °C 79 % 1005,5 hPa 0,0 l/m² 2 min 200 W/m² 12,9 km/h (3 Bft) 97,87 %
25.03.2026 17:38 8,9 °C 10,0 °C 5,6 °C 79 % 1005,5 hPa 0,0 l/m² 2 min 183 W/m² 9,7 km/h (2 Bft) 95,74 %
25.03.2026 17:40 9,1 °C 10,0 °C 5,6 °C 79 % 1005,5 hPa 0,0 l/m² 2 min 146 W/m² 12,9 km/h (3 Bft) 97,87 %
25.03.2026 17:42 9,1 °C 10,0 °C 5,6 °C 78 % 1005,5 hPa 0,0 l/m² 2 min 103 W/m² 16,1 km/h (3 Bft) 97,83 %
25.03.2026 17:44 9,2 °C 9,4 °C 5,6 °C 78 % 1005,5 hPa 0,0 l/m² 0 min 60 W/m² 9,7 km/h (2 Bft) 97,87 %
25.03.2026 17:46 9,2 °C 8,9 °C 5,0 °C 77 % 1005,5 hPa 0,0 l/m² 0 min 43 W/m² 6,4 km/h (2 Bft) 95,74 %
25.03.2026 17:48 9,1 °C 8,3 °C 5,0 °C 77 % 1005,5 hPa 0,0 l/m² 0 min 38 W/m² 12,9 km/h (3 Bft) 97,87 %
25.03.2026 17:50 9,1 °C 8,3 °C 5,0 °C 77 % 1005,6 hPa 0,0 l/m² 0 min 35 W/m² 9,7 km/h (2 Bft) 97,87 %
25.03.2026 17:52 9,0 °C 8,3 °C 4,4 °C 77 % 1005,6 hPa 0,0 l/m² 0 min 33 W/m² 9,7 km/h (2 Bft) 97,87 %
25.03.2026 17:54 8,9 °C 8,3 °C 4,4 °C 76 % 1005,7 hPa 0,0 l/m² 0 min 30 W/m² 9,7 km/h (2 Bft) 95,65 %
25.03.2026 17:56 8,8 °C 7,8 °C 4,4 °C 76 % 1005,8 hPa 0,0 l/m² 0 min 29 W/m² 9,7 km/h (2 Bft) 95,74 %
25.03.2026 17:58 8,8 °C 7,8 °C 4,4 °C 76 % 1005,8 hPa 0,0 l/m² 0 min 26 W/m² 9,7 km/h (2 Bft) 97,87 %
25.03.2026 18:00 8,7 °C 7,8 °C 4,4 °C 76 % 1005,8 hPa 0,0 l/m² 0 min 25 W/m² 9,7 km/h (2 Bft) 97,87 %
25.03.2026 18:02 8,6 °C 7,8 °C 4,4 °C 76 % 1005,9 hPa 0,0 l/m² 0 min 22 W/m² 9,7 km/h (2 Bft) 93,62 %
25.03.2026 18:04 8,6 °C 7,8 °C 4,4 °C 76 % 1005,9 hPa 0,0 l/m² 0 min 19 W/m² 9,7 km/h (2 Bft) 97,87 %
25.03.2026 18:07 8,4 °C 7,8 °C 3,9 °C 75 % 1006,1 hPa 0,0 l/m² 0 min 14 W/m² 25,7 km/h (4 Bft) 97,87 %
25.03.2026 18:08 8,4 °C 7,8 °C 3,9 °C 75 % 1006,1 hPa 0,0 l/m² 0 min 15 W/m² 25,7 km/h (4 Bft) 97,67 %
25.03.2026 18:10 8,4 °C 7,8 °C 3,9 °C 73 % 1006,1 hPa 0,0 l/m² 0 min 14 W/m² 9,7 km/h (2 Bft) 97,79 %
25.03.2026 18:12 8,3 °C 7,8 °C 3,9 °C 73 % 1006,1 hPa 0,0 l/m² 0 min 13 W/m² 16,1 km/h (3 Bft) 96,77 %
25.03.2026 18:14 8,3 °C 7,8 °C 3,9 °C 73 % 1006,1 hPa 0,0 l/m² 0 min 16 W/m² 16,1 km/h (3 Bft) 93,62 %
25.03.2026 18:16 8,3 °C 7,8 °C 3,9 °C 74 % 1006,1 hPa 0,0 l/m² 0 min 22 W/m² 19,3 km/h (3 Bft) 94,34 %
25.03.2026 18:18 8,3 °C 7,8 °C 3,9 °C 74 % 1006,1 hPa 0,0 l/m² 0 min 23 W/m² 22,5 km/h (4 Bft) 94,74 %
25.03.2026 18:20 8,2 °C 7,2 °C 3,9 °C 74 % 1006,2 hPa 0,0 l/m² 0 min 22 W/m² 16,1 km/h (3 Bft) 93,88 %
25.03.2026 18:22 8,1 °C 7,2 °C 3,9 °C 75 % 1006,2 hPa 0,0 l/m² 0 min 19 W/m² 16,1 km/h (3 Bft) 97,87 %
25.03.2026 18:24 8,1 °C 7,2 °C 3,3 °C 75 % 1006,2 hPa 0,0 l/m² 0 min 18 W/m² 12,9 km/h (3 Bft) 100,00 %
25.03.2026 18:26 7,9 °C 7,2 °C 3,3 °C 75 % 1006,3 hPa 0,0 l/m² 0 min 18 W/m² 9,7 km/h (2 Bft) 100,00 %
25.03.2026 18:28 7,9 °C 7,2 °C 3,3 °C 75 % 1006,3 hPa 0,0 l/m² 0 min 18 W/m² 12,9 km/h (3 Bft) 95,74 %
25.03.2026 18:30 7,8 °C 6,7 °C 3,3 °C 75 % 1006,4 hPa 0,0 l/m² 0 min 16 W/m² 12,9 km/h (3 Bft) 95,74 %
25.03.2026 18:32 7,7 °C 6,7 °C 3,3 °C 75 % 1006,4 hPa 0,0 l/m² 0 min 15 W/m² 9,7 km/h (2 Bft) 97,83 %
25.03.2026 18:34 7,7 °C 6,7 °C 3,3 °C 75 % 1006,4 hPa 0,0 l/m² 0 min 13 W/m² 22,5 km/h (4 Bft) 96,43 %
25.03.2026 18:36 7,6 °C 6,7 °C 3,3 °C 75 % 1006,5 hPa 0,0 l/m² 0 min 12 W/m² 16,1 km/h (3 Bft) 97,83 %
25.03.2026 18:38 7,6 °C 6,7 °C 3,3 °C 74 % 1006,5 hPa 0,0 l/m² 0 min 10 W/m² 16,1 km/h (3 Bft) 97,87 %
25.03.2026 18:40 7,5 °C 6,7 °C 3,3 °C 74 % 1006,6 hPa 0,0 l/m² 0 min 9 W/m² 19,3 km/h (3 Bft) 95,74 %
25.03.2026 18:42 7,5 °C 6,7 °C 3,3 °C 73 % 1006,6 hPa 0,0 l/m² 0 min 7 W/m² 12,9 km/h (3 Bft) 97,87 %
25.03.2026 18:44 7,4 °C 6,7 °C 3,3 °C 73 % 1006,6 hPa 0,0 l/m² 0 min 6 W/m² 19,3 km/h (3 Bft) 97,87 %
25.03.2026 18:46 7,4 °C 6,7 °C 3,3 °C 73 % 1006,6 hPa 0,0 l/m² 0 min 5 W/m² 16,1 km/h (3 Bft) 95,65 %
25.03.2026 18:48 7,4 °C 6,7 °C 3,3 °C 73 % 1006,6 hPa 0,0 l/m² 0 min 4 W/m² 19,3 km/h (3 Bft) 97,87 %
25.03.2026 18:50 7,4 °C 6,7 °C 3,3 °C 73 % 1006,6 hPa 0,0 l/m² 0 min 0 W/m² 12,9 km/h (3 Bft) 95,74 %
25.03.2026 18:52 7,4 °C 6,7 °C 3,3 °C 73 % 1006,6 hPa 0,0 l/m² 0 min 0 W/m² 12,9 km/h (3 Bft) 97,87 %
25.03.2026 18:54 7,4 °C 6,7 °C 3,3 °C 73 % 1006,6 hPa 0,0 l/m² 0 min 0 W/m² 9,7 km/h (2 Bft) 97,87 %
25.03.2026 18:56 7,4 °C 6,7 °C 3,3 °C 74 % 1006,7 hPa 0,0 l/m² 0 min 0 W/m² 9,7 km/h (2 Bft) 93,62 %
25.03.2026 18:58 7,4 °C 6,7 °C 3,3 °C 74 % 1006,7 hPa 0,0 l/m² 0 min 0 W/m² 9,7 km/h (2 Bft) 95,65 %
25.03.2026 19:00 7,4 °C 6,7 °C 3,3 °C 74 % 1006,7 hPa 0,0 l/m² 0 min 0 W/m² 9,7 km/h (2 Bft) 95,74 %
25.03.2026 19:02 7,4 °C 6,7 °C 3,3 °C 74 % 1006,7 hPa 0,0 l/m² 0 min 0 W/m² 6,4 km/h (2 Bft) 95,74 %
25.03.2026 19:04 7,4 °C 6,7 °C 3,3 °C 74 % 1006,8 hPa 0,0 l/m² 0 min 0 W/m² 19,3 km/h (3 Bft) 95,74 %
25.03.2026 19:06 7,3 °C 6,7 °C 3,3 °C 74 % 1006,8 hPa 0,0 l/m² 0 min 0 W/m² 12,9 km/h (3 Bft) 95,74 %
25.03.2026 19:08 7,3 °C 6,7 °C 3,3 °C 74 % 1006,8 hPa 0,0 l/m² 0 min 0 W/m² 9,7 km/h (2 Bft) 97,92 %
25.03.2026 19:10 7,3 °C 6,7 °C 3,3 °C 74 % 1006,8 hPa 0,0 l/m² 0 min 0 W/m² 12,9 km/h (3 Bft) 97,83 %
25.03.2026 19:12 7,3 °C 6,7 °C 3,3 °C 75 % 1006,9 hPa 0,0 l/m² 0 min 0 W/m² 12,9 km/h (3 Bft) 97,87 %
25.03.2026 19:14 7,3 °C 6,7 °C 3,3 °C 75 % 1006,9 hPa 0,0 l/m² 0 min 0 W/m² 9,7 km/h (2 Bft) 97,14 %
25.03.2026 19:16 7,3 °C 6,7 °C 3,3 °C 75 % 1006,9 hPa 0,0 l/m² 0 min 0 W/m² 9,7 km/h (2 Bft) 97,92 %
25.03.2026 19:18 7,3 °C 6,7 °C 3,3 °C 75 % 1007,0 hPa 0,0 l/m² 0 min 0 W/m² 9,7 km/h (2 Bft) 95,74 %
25.03.2026 19:20 7,2 °C 6,7 °C 3,3 °C 76 % 1007,0 hPa 0,0 l/m² 0 min 0 W/m² 9,7 km/h (2 Bft) 97,87 %
25.03.2026 19:22 7,2 °C 6,7 °C 3,3 °C 76 % 1006,9 hPa 0,0 l/m² 0 min 0 W/m² 9,7 km/h (2 Bft) 97,87 %
25.03.2026 19:24 7,2 °C 6,7 °C 3,3 °C 76 % 1007,0 hPa 0,0 l/m² 0 min 0 W/m² 16,1 km/h (3 Bft) 100,00 %
25.03.2026 19:26 7,2 °C 6,7 °C 3,3 °C 76 % 1007,0 hPa 0,0 l/m² 0 min 0 W/m² 12,9 km/h (3 Bft) 100,00 %
25.03.2026 19:28 7,2 °C 6,7 °C 3,3 °C 76 % 1007,1 hPa 0,0 l/m² 0 min 0 W/m² 12,9 km/h (3 Bft) 100,00 %
25.03.2026 19:30 7,2 °C 6,7 °C 3,3 °C 77 % 1007,1 hPa 0,0 l/m² 0 min 0 W/m² 9,7 km/h (2 Bft) 100,00 %
25.03.2026 19:32 7,2 °C 6,7 °C 2,8 °C 77 % 1007,2 hPa 0,0 l/m² 0 min 0 W/m² 12,9 km/h (3 Bft) 100,00 %
25.03.2026 19:34 7,2 °C 6,7 °C 2,8 °C 77 % 1007,2 hPa 0,0 l/m² 0 min 0 W/m² 16,1 km/h (3 Bft) 100,00 %
25.03.2026 19:36 7,2 °C 6,7 °C 2,8 °C 77 % 1007,2 hPa 0,0 l/m² 0 min 0 W/m² 16,1 km/h (3 Bft) 100,00 %
25.03.2026 19:38 7,2 °C 6,7 °C 2,8 °C 78 % 1007,3 hPa 0,0 l/m² 0 min 0 W/m² 12,9 km/h (3 Bft) 100,00 %
25.03.2026 19:40 7,1 °C 6,7 °C 2,8 °C 78 % 1007,4 hPa 0,0 l/m² 0 min 0 W/m² 16,1 km/h (3 Bft) 100,00 %
25.03.2026 19:42 7,1 °C 6,7 °C 2,8 °C 78 % 1007,5 hPa 0,0 l/m² 0 min 0 W/m² 19,3 km/h (3 Bft) 95,74 %
25.03.2026 19:44 7,1 °C 6,7 °C 2,8 °C 78 % 1007,5 hPa 0,0 l/m² 0 min 0 W/m² 16,1 km/h (3 Bft) 100,00 %
25.03.2026 19:46 7,1 °C 6,1 °C 2,8 °C 78 % 1007,5 hPa 0,0 l/m² 0 min 0 W/m² 19,3 km/h (3 Bft) 97,87 %
25.03.2026 19:48 7,0 °C 6,1 °C 2,8 °C 79 % 1007,6 hPa 0,0 l/m² 0 min 0 W/m² 12,9 km/h (3 Bft) 100,00 %
25.03.2026 19:50 6,9 °C 6,1 °C 2,8 °C 78 % 1007,7 hPa 0,0 l/m² 0 min 0 W/m² 16,1 km/h (3 Bft) 100,00 %
25.03.2026 19:52 6,9 °C 6,1 °C 2,8 °C 78 % 1007,8 hPa 0,0 l/m² 0 min 0 W/m² 12,9 km/h (3 Bft) 100,00 %
25.03.2026 19:54 6,8 °C 6,1 °C 2,8 °C 78 % 1007,8 hPa 0,0 l/m² 0 min 0 W/m² 19,3 km/h (3 Bft) 95,74 %
25.03.2026 19:56 6,7 °C 6,1 °C 2,8 °C 77 % 1007,9 hPa 0,0 l/m² 0 min 0 W/m² 22,5 km/h (4 Bft) 100,00 %
25.03.2026 19:58 6,7 °C 6,1 °C 2,8 °C 76 % 1008,0 hPa 0,0 l/m² 0 min 0 W/m² 16,1 km/h (3 Bft) 100,00 %
25.03.2026 20:00 6,6 °C 5,6 °C 2,2 °C 76 % 1008,0 hPa 0,0 l/m² 0 min 0 W/m² 38,6 km/h (5 Bft) 100,00 %
25.03.2026 20:02 6,5 °C 5,6 °C 2,2 °C 75 % 1008,1 hPa 0,0 l/m² 0 min 0 W/m² 38,6 km/h (5 Bft) 100,00 %
25.03.2026 20:04 6,4 °C 5,6 °C 2,2 °C 76 % 1008,1 hPa 0,0 l/m² 0 min 0 W/m² 22,5 km/h (4 Bft) 97,87 %
25.03.2026 20:06 6,3 °C 5,6 °C 2,2 °C 76 % 1008,2 hPa 0,0 l/m² 0 min 0 W/m² 38,6 km/h (5 Bft) 100,00 %
25.03.2026 20:08 6,3 °C 5,6 °C 2,2 °C 77 % 1008,2 hPa 0,0 l/m² 0 min 0 W/m² 25,7 km/h (4 Bft) 100,00 %
25.03.2026 20:10 6,2 °C 5,6 °C 2,2 °C 78 % 1008,3 hPa 0,0 l/m² 0 min 0 W/m² 19,3 km/h (3 Bft) 100,00 %
25.03.2026 20:12 6,2 °C 5,6 °C 2,2 °C 78 % 1008,3 hPa 0,0 l/m² 0 min 0 W/m² 16,1 km/h (3 Bft) 100,00 %
25.03.2026 20:14 6,1 °C 5,6 °C 2,2 °C 79 % 1008,3 hPa 0,0 l/m² 0 min 0 W/m² 12,9 km/h (3 Bft) 100,00 %
25.03.2026 20:16 6,1 °C 5,6 °C 2,2 °C 79 % 1008,3 hPa 0,0 l/m² 0 min 0 W/m² 19,3 km/h (3 Bft) 100,00 %
25.03.2026 20:18 6,1 °C 5,6 °C 2,2 °C 79 % 1008,3 hPa 0,0 l/m² 0 min 0 W/m² 16,1 km/h (3 Bft) 100,00 %
25.03.2026 20:20 6,0 °C 5,6 °C 2,2 °C 80 % 1008,2 hPa 0,0 l/m² 0 min 0 W/m² 12,9 km/h (3 Bft) 100,00 %
25.03.2026 20:22 6,0 °C 5,6 °C 2,2 °C 80 % 1008,2 hPa 0,0 l/m² 0 min 0 W/m² 12,9 km/h (3 Bft) 100,00 %
25.03.2026 20:24 6,0 °C 5,6 °C 2,2 °C 80 % 1008,2 hPa 0,0 l/m² 0 min 0 W/m² 12,9 km/h (3 Bft) 100,00 %
25.03.2026 20:26 6,0 °C 5,6 °C 1,7 °C 80 % 1008,3 hPa 0,0 l/m² 0 min 0 W/m² 16,1 km/h (3 Bft) 100,00 %
25.03.2026 20:28 5,9 °C 5,6 °C 2,2 °C 80 % 1008,3 hPa 0,0 l/m² 0 min 0 W/m² 12,9 km/h (3 Bft) 100,00 %
25.03.2026 20:30 5,9 °C 5,6 °C 2,2 °C 81 % 1008,3 hPa 0,0 l/m² 0 min 0 W/m² 9,7 km/h (2 Bft) 100,00 %
25.03.2026 20:32 5,9 °C 5,6 °C 1,7 °C 81 % 1008,3 hPa 0,0 l/m² 0 min 0 W/m² 9,7 km/h (2 Bft) 100,00 %
25.03.2026 20:34 5,9 °C 5,0 °C 2,2 °C 81 % 1008,3 hPa 0,0 l/m² 0 min 0 W/m² 12,9 km/h (3 Bft) 93,48 %
25.03.2026 20:36 5,9 °C 5,0 °C 2,2 °C 81 % 1008,5 hPa 0,0 l/m² 0 min 0 W/m² 9,7 km/h (2 Bft) 95,74 %
25.03.2026 20:38 5,9 °C 5,0 °C 2,2 °C 81 % 1008,5 hPa 0,0 l/m² 0 min 0 W/m² 12,9 km/h (3 Bft) 95,74 %
25.03.2026 20:40 5,9 °C 5,0 °C 1,7 °C 81 % 1008,5 hPa 0,0 l/m² 0 min 0 W/m² 9,7 km/h (2 Bft) 97,87 %
25.03.2026 20:42 5,8 °C 5,0 °C 1,7 °C 82 % 1008,6 hPa 0,0 l/m² 0 min 0 W/m² 6,4 km/h (2 Bft) 97,87 %
25.03.2026 20:44 5,8 °C 5,0 °C 1,7 °C 82 % 1008,6 hPa 0,0 l/m² 0 min 0 W/m² 6,4 km/h (2 Bft) 95,74 %
25.03.2026 20:46 5,8 °C 5,0 °C 1,7 °C 82 % 1008,6 hPa 0,0 l/m² 0 min 0 W/m² 12,9 km/h (3 Bft) 95,65 %
25.03.2026 20:48 5,8 °C 5,0 °C 1,7 °C 82 % 1008,6 hPa 0,0 l/m² 0 min 0 W/m² 16,1 km/h (3 Bft) 91,49 %
25.03.2026 20:50 5,7 °C 5,0 °C 1,7 °C 82 % 1008,6 hPa 0,0 l/m² 0 min 0 W/m² 9,7 km/h (2 Bft) 93,62 %
25.03.2026 20:52 5,7 °C 5,0 °C 1,7 °C 82 % 1008,7 hPa 0,0 l/m² 0 min 0 W/m² 12,9 km/h (3 Bft) 57,45 %
25.03.2026 20:54 5,7 °C 5,0 °C 1,7 °C 82 % 1008,7 hPa 0,0 l/m² 0 min 0 W/m² 6,4 km/h (2 Bft) 89,36 %
25.03.2026 20:56 5,6 °C 5,0 °C 1,7 °C 82 % 1008,7 hPa 0,0 l/m² 0 min 0 W/m² 9,7 km/h (2 Bft) 93,62 %
25.03.2026 20:58 5,6 °C 5,0 °C 1,7 °C 82 % 1008,7 hPa 0,0 l/m² 0 min 0 W/m² 6,4 km/h (2 Bft) 93,48 %
25.03.2026 21:00 5,6 °C 5,0 °C 1,7 °C 83 % 1008,8 hPa 0,0 l/m² 0 min 0 W/m² 16,1 km/h (3 Bft) 91,49 %
25.03.2026 21:02 5,6 °C 5,0 °C 1,7 °C 83 % 1008,9 hPa 0,0 l/m² 0 min 0 W/m² 12,9 km/h (3 Bft) 91,49 %
25.03.2026 21:04 5,6 °C 5,0 °C 1,7 °C 83 % 1008,8 hPa 0,0 l/m² 0 min 0 W/m² 3,2 km/h (1 Bft) 93,62 %
25.03.2026 21:06 5,6 °C 5,0 °C 1,7 °C 83 % 1008,8 hPa 0,0 l/m² 0 min 0 W/m² 9,7 km/h (2 Bft) 94,92 %
25.03.2026 21:08 5,6 °C 5,0 °C 1,7 °C 83 % 1008,8 hPa 0,0 l/m² 0 min 0 W/m² 6,4 km/h (2 Bft) 94,44 %
25.03.2026 21:10 5,6 °C 5,0 °C 1,7 °C 84 % 1008,8 hPa 0,0 l/m² 0 min 0 W/m² 12,9 km/h (3 Bft) 95,65 %
25.03.2026 21:12 5,5 °C 5,0 °C 1,7 °C 84 % 1008,7 hPa 0,0 l/m² 0 min 0 W/m² 6,4 km/h (2 Bft) 95,74 %
25.03.2026 21:14 5,5 °C 5,0 °C 1,7 °C 84 % 1008,8 hPa 0,0 l/m² 0 min 0 W/m² 12,9 km/h (3 Bft) 95,74 %
25.03.2026 21:16 5,4 °C 4,4 °C 1,7 °C 84 % 1008,8 hPa 0,0 l/m² 0 min 0 W/m² 6,4 km/h (2 Bft) 95,74 %
25.03.2026 21:18 5,4 °C 4,4 °C 1,1 °C 84 % 1008,9 hPa 0,0 l/m² 0 min 0 W/m² 12,9 km/h (3 Bft) 95,74 %
25.03.2026 21:20 5,3 °C 4,4 °C 1,1 °C 84 % 1008,8 hPa 0,0 l/m² 0 min 0 W/m² 6,4 km/h (2 Bft) 95,74 %
25.03.2026 21:22 5,3 °C 4,4 °C 1,1 °C 84 % 1008,9 hPa 0,0 l/m² 0 min 0 W/m² 6,4 km/h (2 Bft) 91,30 %
25.03.2026 21:24 5,2 °C 4,4 °C 1,1 °C 84 % 1008,9 hPa 0,0 l/m² 0 min 0 W/m² 12,9 km/h (3 Bft) 95,74 %
25.03.2026 21:26 5,2 °C 4,4 °C 1,1 °C 85 % 1008,9 hPa 0,0 l/m² 0 min 0 W/m² 9,7 km/h (2 Bft) 91,49 %
25.03.2026 21:28 5,1 °C 3,9 °C 1,1 °C 85 % 1008,9 hPa 0,0 l/m² 0 min 0 W/m² 6,4 km/h (2 Bft) 95,74 %
25.03.2026 21:30 5,1 °C 3,9 °C 1,1 °C 85 % 1008,9 hPa 0,0 l/m² 0 min 0 W/m² 12,9 km/h (3 Bft) 95,74 %
25.03.2026 21:32 5,1 °C 3,9 °C 1,1 °C 85 % 1008,9 hPa 0,0 l/m² 0 min 0 W/m² 16,1 km/h (3 Bft) 91,30 %
25.03.2026 21:34 5,0 °C 3,9 °C 1,1 °C 85 % 1009,0 hPa 0,0 l/m² 0 min 0 W/m² 6,4 km/h (2 Bft) 95,74 %
25.03.2026 21:36 4,9 °C 3,9 °C 1,1 °C 86 % 1009,0 hPa 0,0 l/m² 0 min 0 W/m² 12,9 km/h (3 Bft) 95,74 %
25.03.2026 21:38 4,9 °C 3,9 °C 1,1 °C 85 % 1009,0 hPa 0,0 l/m² 0 min 0 W/m² 3,2 km/h (1 Bft) 97,87 %
25.03.2026 21:40 4,8 °C 3,9 °C 0,6 °C 86 % 1009,0 hPa 0,0 l/m² 0 min 0 W/m² 6,4 km/h (2 Bft) 97,87 %
25.03.2026 21:42 4,8 °C 3,9 °C 0,6 °C 86 % 1009,0 hPa 0,0 l/m² 0 min 0 W/m² 3,2 km/h (1 Bft) 95,74 %
25.03.2026 21:44 4,8 °C 3,9 °C 0,6 °C 86 % 1009,0 hPa 0,0 l/m² 0 min 0 W/m² 6,4 km/h (2 Bft) 100,00 %
25.03.2026 21:46 4,7 °C 3,9 °C 0,6 °C 86 % 1009,0 hPa 0,0 l/m² 0 min 0 W/m² 16,1 km/h (3 Bft) 97,87 %
25.03.2026 21:48 4,6 °C 3,3 °C 0,6 °C 86 % 1009,0 hPa 0,0 l/m² 0 min 0 W/m² 6,4 km/h (2 Bft) 100,00 %
25.03.2026 21:50 4,6 °C 3,3 °C 0,6 °C 87 % 1009,0 hPa 0,0 l/m² 0 min 0 W/m² 3,2 km/h (1 Bft) 100,00 %
25.03.2026 21:52 4,6 °C 3,3 °C 0,6 °C 87 % 1009,0 hPa 0,0 l/m² 0 min 0 W/m² 16,1 km/h (3 Bft) 100,00 %
25.03.2026 21:54 4,5 °C 3,3 °C 0,6 °C 87 % 1009,0 hPa 0,0 l/m² 0 min 0 W/m² 3,2 km/h (1 Bft) 97,87 %
25.03.2026 21:56 4,4 °C 3,3 °C 0,6 °C 87 % 1009,0 hPa 0,0 l/m² 0 min 0 W/m² 12,9 km/h (3 Bft) 100,00 %
25.03.2026 21:58 4,4 °C 3,3 °C 0,6 °C 87 % 1009,1 hPa 0,0 l/m² 0 min 0 W/m² 12,9 km/h (3 Bft) 100,00 %
25.03.2026 22:00 4,4 °C 3,3 °C 0,6 °C 87 % 1009,0 hPa 0,0 l/m² 0 min 0 W/m² 3,2 km/h (1 Bft) 100,00 %
25.03.2026 22:02 4,4 °C 3,3 °C 0,6 °C 88 % 1009,1 hPa 0,0 l/m² 0 min 0 W/m² 6,4 km/h (2 Bft) 100,00 %
25.03.2026 22:04 4,3 °C 3,3 °C 0,6 °C 88 % 1009,1 hPa 0,0 l/m² 0 min 0 W/m² 6,4 km/h (2 Bft) 100,00 %
25.03.2026 22:06 4,3 °C 3,9 °C 0,6 °C 88 % 1009,2 hPa 0,0 l/m² 0 min 0 W/m² 6,4 km/h (2 Bft) 100,00 %
25.03.2026 22:08 4,3 °C 3,9 °C 0,6 °C 88 % 1009,2 hPa 0,0 l/m² 0 min 0 W/m² 3,2 km/h (1 Bft) 100,00 %
25.03.2026 22:10 4,4 °C 3,9 °C 0,6 °C 88 % 1009,2 hPa 0,0 l/m² 0 min 0 W/m² 3,2 km/h (1 Bft) 100,00 %
25.03.2026 22:12 4,4 °C 3,9 °C 0,6 °C 88 % 1009,1 hPa 0,0 l/m² 0 min 0 W/m² 9,7 km/h (2 Bft) 97,87 %
25.03.2026 22:14 4,4 °C 3,9 °C 0,6 °C 88 % 1009,2 hPa 0,0 l/m² 0 min 0 W/m² 6,4 km/h (2 Bft) 97,87 %
25.03.2026 22:16 4,4 °C 3,9 °C 0,6 °C 88 % 1009,2 hPa 0,0 l/m² 0 min 0 W/m² 6,4 km/h (2 Bft) 97,87 %
25.03.2026 22:18 4,3 °C 3,9 °C 0,6 °C 89 % 1009,2 hPa 0,0 l/m² 0 min 0 W/m² 9,7 km/h (2 Bft) 97,87 %
25.03.2026 22:20 4,3 °C 3,3 °C 0,6 °C 89 % 1009,3 hPa 0,0 l/m² 0 min 0 W/m² 16,1 km/h (3 Bft) 95,65 %
25.03.2026 22:22 4,3 °C 3,3 °C 0,6 °C 89 % 1009,3 hPa 0,0 l/m² 0 min 0 W/m² 6,4 km/h (2 Bft) 97,87 %
25.03.2026 22:24 4,3 °C 3,3 °C 0,6 °C 89 % 1009,3 hPa 0,0 l/m² 0 min 0 W/m² 9,7 km/h (2 Bft) 97,87 %
25.03.2026 22:26 4,3 °C 3,3 °C 0,6 °C 89 % 1009,3 hPa 0,0 l/m² 0 min 0 W/m² 12,9 km/h (3 Bft) 97,87 %
25.03.2026 22:28 4,3 °C 3,3 °C 0,6 °C 89 % 1009,4 hPa 0,0 l/m² 0 min 0 W/m² 16,1 km/h (3 Bft) 95,74 %
25.03.2026 22:30 4,2 °C 3,3 °C 0,6 °C 89 % 1009,3 hPa 0,0 l/m² 0 min 0 W/m² 9,7 km/h (2 Bft) 97,87 %
25.03.2026 22:32 4,2 °C 3,3 °C 0,6 °C 89 % 1009,3 hPa 0,0 l/m² 0 min 0 W/m² 9,7 km/h (2 Bft) 97,83 %
25.03.2026 22:34 4,2 °C 3,3 °C 0,6 °C 89 % 1009,3 hPa 0,0 l/m² 0 min 0 W/m² 6,4 km/h (2 Bft) 97,87 %
25.03.2026 22:36 4,2 °C 3,3 °C 0,6 °C 89 % 1009,4 hPa 0,0 l/m² 0 min 0 W/m² 9,7 km/h (2 Bft) 95,74 %
25.03.2026 22:38 4,2 °C 3,3 °C 0,6 °C 89 % 1009,3 hPa 0,0 l/m² 0 min 0 W/m² 12,9 km/h (3 Bft) 97,87 %
25.03.2026 22:40 4,2 °C 3,3 °C 0,6 °C 89 % 1009,4 hPa 0,0 l/m² 0 min 0 W/m² 16,1 km/h (3 Bft) 97,87 %
25.03.2026 22:42 4,2 °C 3,9 °C 0,6 °C 89 % 1009,3 hPa 0,0 l/m² 0 min 0 W/m² 9,7 km/h (2 Bft) 97,83 %
25.03.2026 22:44 4,2 °C 3,9 °C 0,6 °C 89 % 1009,3 hPa 0,0 l/m² 0 min 0 W/m² 6,4 km/h (2 Bft) 95,74 %
25.03.2026 22:46 4,2 °C 3,9 °C 0,6 °C 89 % 1009,3 hPa 0,0 l/m² 0 min 0 W/m² 9,7 km/h (2 Bft) 100,00 %
25.03.2026 22:48 4,2 °C 3,9 °C 0,6 °C 89 % 1009,3 hPa 0,0 l/m² 0 min 0 W/m² 9,7 km/h (2 Bft) 100,00 %
25.03.2026 22:50 4,2 °C 3,9 °C 0,6 °C 89 % 1009,3 hPa 0,0 l/m² 0 min 0 W/m² 12,9 km/h (3 Bft) 100,00 %
25.03.2026 22:52 4,2 °C 3,9 °C 0,6 °C 89 % 1009,3 hPa 0,0 l/m² 0 min 0 W/m² 6,4 km/h (2 Bft) 100,00 %
25.03.2026 22:54 4,3 °C 3,9 °C 0,6 °C 89 % 1009,4 hPa 0,0 l/m² 0 min 0 W/m² 6,4 km/h (2 Bft) 100,00 %
25.03.2026 22:56 4,3 °C 3,9 °C 0,6 °C 89 % 1009,4 hPa 0,0 l/m² 0 min 0 W/m² 6,4 km/h (2 Bft) 97,87 %
25.03.2026 22:58 4,3 °C 3,9 °C 0,6 °C 89 % 1009,4 hPa 0,0 l/m² 0 min 0 W/m² 6,4 km/h (2 Bft) 100,00 %
25.03.2026 23:00 4,3 °C 3,9 °C 0,6 °C 89 % 1009,5 hPa 0,0 l/m² 0 min 0 W/m² 6,4 km/h (2 Bft) 100,00 %
25.03.2026 23:02 4,3 °C 3,9 °C 0,6 °C 89 % 1009,5 hPa 0,0 l/m² 0 min 0 W/m² 3,2 km/h (1 Bft) 100,00 %
25.03.2026 23:04 4,3 °C 3,9 °C 0,6 °C 89 % 1009,6 hPa 0,0 l/m² 0 min 0 W/m² 6,4 km/h (2 Bft) 100,00 %
25.03.2026 23:06 4,3 °C 3,9 °C 0,6 °C 89 % 1009,6 hPa 0,0 l/m² 0 min 0 W/m² 3,2 km/h (1 Bft) 97,83 %
25.03.2026 23:08 4,3 °C 3,9 °C 0,6 °C 89 % 1009,6 hPa 0,0 l/m² 0 min 0 W/m² 3,2 km/h (1 Bft) 100,00 %
25.03.2026 23:10 4,3 °C 3,3 °C 0,6 °C 89 % 1009,6 hPa 0,0 l/m² 0 min 0 W/m² 6,4 km/h (2 Bft) 97,83 %
25.03.2026 23:12 4,3 °C 3,3 °C 0,6 °C 89 % 1009,6 hPa 0,0 l/m² 0 min 0 W/m² 6,4 km/h (2 Bft) 100,00 %
25.03.2026 23:14 4,3 °C 3,3 °C 0,6 °C 89 % 1009,7 hPa 0,0 l/m² 0 min 0 W/m² 3,2 km/h (1 Bft) 97,87 %
25.03.2026 23:16 4,3 °C 3,3 °C 0,6 °C 89 % 1009,7 hPa 0,0 l/m² 0 min 0 W/m² 3,2 km/h (1 Bft) 95,74 %
25.03.2026 23:18 4,3 °C 3,3 °C 0,6 °C 89 % 1009,7 hPa 0,0 l/m² 0 min 0 W/m² 6,4 km/h (2 Bft) 93,48 %
25.03.2026 23:20 4,3 °C 3,9 °C 0,6 °C 89 % 1009,6 hPa 0,0 l/m² 0 min 0 W/m² 9,7 km/h (2 Bft) 95,74 %
25.03.2026 23:22 4,3 °C 3,9 °C 0,6 °C 89 % 1009,6 hPa 0,0 l/m² 0 min 0 W/m² 6,4 km/h (2 Bft) 97,87 %
25.03.2026 23:24 4,3 °C 3,9 °C 0,6 °C 89 % 1009,6 hPa 0,0 l/m² 0 min 0 W/m² 6,4 km/h (2 Bft) 97,87 %
25.03.2026 23:26 4,3 °C 3,9 °C 0,6 °C 89 % 1009,6 hPa 0,0 l/m² 0 min 0 W/m² 6,4 km/h (2 Bft) 97,87 %
25.03.2026 23:28 4,3 °C 3,3 °C 0,6 °C 89 % 1009,5 hPa 0,0 l/m² 0 min 0 W/m² 6,4 km/h (2 Bft) 97,87 %
25.03.2026 23:30 4,3 °C 3,3 °C 0,6 °C 89 % 1009,6 hPa 0,0 l/m² 0 min 0 W/m² 6,4 km/h (2 Bft) 97,83 %
25.03.2026 23:32 4,3 °C 3,3 °C 0,6 °C 89 % 1009,6 hPa 0,0 l/m² 0 min 0 W/m² 6,4 km/h (2 Bft) 97,87 %
25.03.2026 23:34 4,3 °C 3,3 °C 0,6 °C 89 % 1009,6 hPa 0,0 l/m² 0 min 0 W/m² 9,7 km/h (2 Bft) 97,87 %
25.03.2026 23:36 4,2 °C 3,3 °C 0,6 °C 89 % 1009,7 hPa 0,0 l/m² 0 min 0 W/m² 12,9 km/h (3 Bft) 95,74 %
25.03.2026 23:38 4,2 °C 3,3 °C 0,6 °C 89 % 1009,7 hPa 0,0 l/m² 0 min 0 W/m² 6,4 km/h (2 Bft) 97,87 %
25.03.2026 23:40 4,2 °C 3,9 °C 0,6 °C 89 % 1009,8 hPa 0,0 l/m² 0 min 0 W/m² 6,4 km/h (2 Bft) 97,87 %
25.03.2026 23:42 4,2 °C 3,3 °C 0,6 °C 89 % 1009,7 hPa 0,0 l/m² 0 min 0 W/m² 6,4 km/h (2 Bft) 97,83 %
25.03.2026 23:44 4,2 °C 3,3 °C 0,6 °C 89 % 1009,8 hPa 0,0 l/m² 0 min 0 W/m² 6,4 km/h (2 Bft) 97,87 %
25.03.2026 23:46 4,2 °C 3,3 °C 0,6 °C 89 % 1009,9 hPa 0,0 l/m² 0 min 0 W/m² 16,1 km/h (3 Bft) 93,62 %
25.03.2026 23:48 4,2 °C 3,3 °C 0,6 °C 89 % 1009,9 hPa 0,0 l/m² 0 min 0 W/m² 12,9 km/h (3 Bft) 97,87 %
25.03.2026 23:50 4,2 °C 3,3 °C 0,6 °C 89 % 1009,9 hPa 0,0 l/m² 0 min 0 W/m² 16,1 km/h (3 Bft) 97,87 %
25.03.2026 23:52 4,1 °C 3,3 °C 0,6 °C 89 % 1009,9 hPa 0,0 l/m² 0 min 0 W/m² 9,7 km/h (2 Bft) 93,48 %
25.03.2026 23:54 4,1 °C 3,3 °C 0,6 °C 90 % 1010,0 hPa 0,0 l/m² 0 min 0 W/m² 12,9 km/h (3 Bft) 97,87 %
25.03.2026 23:56 4,1 °C 3,3 °C 0,6 °C 90 % 1010,0 hPa 0,0 l/m² 0 min 0 W/m² 9,7 km/h (2 Bft) 97,87 %
25.03.2026 23:58 4,1 °C 3,3 °C 0,6 °C 90 % 1010,0 hPa 0,0 l/m² 0 min 0 W/m² 9,7 km/h (2 Bft) 97,87 %
_ Min-Zeit 23:52 21:48 11:26 00:14 06:24 - - - 12:28 20:52
Minimum _ 4,1 °C 3,3 °C 0,6 °C 66 % 999,9 hPa - - - 3,2 km/h (1 Bft) 57,45 %
_ Max-Zeit 00:24 16:52 00:00 12:36 23:54 11:00 15:27 15:20 03:34 00:12
Maximum _ 13,2 °C 13,3 °C 8,3 °C 93 % 1010,0 hPa 0,2 l/m² 5 min 534 W/m² 64,4 km/h
SO (8 Bft)
100,00 %
Durchschnitt _ 8,6 °C 8,4 °C 4,5 °C 78 % 1004,1 hPa #1,9 l/m² #2:39 h 147 W/m² 21,1 km/h (4 Bft) 97,39 %
© 2026 W. Hausmann